PEQUAWKET POND DAM: From 03/17/2022 00:00 to 05/18/2022 00:00

Date LAKE ELEVATION [FT] PRECIPITATION INCREMENT [IN] PRECIPITATION DAILY TOTAL [IN] AIR TEMPERATURE [F] RESERVOIR RELEASE [CFS]
05/16/2022 10:00 -- -- -- -- 77.0
05/16/2022 09:00 457.70 0.00 -- 60.0 76.8
05/16/2022 08:00 457.70 0.00 -- 59.3 76.3
05/16/2022 07:00 457.70 0.00 -- 58.4 75.5
05/16/2022 06:00 457.69 0.00 -- 58.4 69.8
05/16/2022 05:00 457.69 0.00 -- 59.3 68.0
05/16/2022 04:00 457.68 0.00 -- 59.4 66.8
05/16/2022 03:00 457.67 0.00 -- 59.3 66.0
05/16/2022 02:00 457.67 0.00 -- 58.9 65.3
05/16/2022 01:00 457.66 0.00 -- 59.8 64.0
05/16/2022 00:00 457.65 0.00 -- 61.0 63.5
05/15/2022 23:00 457.65 0.04 -- 62.0 62.3
05/15/2022 22:00 457.64 0.00 -- 62.7 61.5
05/15/2022 21:00 457.63 0.00 -- 63.5 60.5
05/15/2022 20:00 457.62 0.09 -- 65.1 59.0
05/15/2022 19:00 457.61 1.11 -- 66.1 55.0
05/15/2022 18:00 457.55 0.09 -- 67.6 50.0
05/15/2022 17:00 457.54 0.01 -- 69.9 49.3
05/15/2022 16:00 457.54 0.11 -- 70.3 49.0
05/15/2022 15:00 457.52 0.00 -- 70.8 47.0
05/15/2022 14:00 457.52 0.01 -- 71.8 47.3
05/15/2022 13:00 457.52 0.00 -- 71.9 47.0
05/15/2022 12:00 457.52 0.00 -- 71.9 47.0
05/15/2022 11:00 457.52 0.00 -- 67.9 47.0
05/15/2022 10:00 457.52 0.00 -- 65.5 47.0
05/15/2022 09:00 457.52 0.00 -- 63.1 46.8
05/15/2022 08:00 457.52 0.01 -- 62.2 47.0
05/15/2022 07:00 457.52 0.01 -- 62.8 47.0
05/15/2022 06:00 457.52 0.00 -- 62.1 47.0
05/15/2022 05:00 457.52 0.00 -- 62.6 47.0
05/15/2022 04:00 457.52 0.00 -- 61.8 47.3
05/15/2022 03:00 457.52 0.00 -- 63.3 47.3
05/15/2022 02:00 457.52 0.00 -- 63.2 47.3
05/15/2022 01:00 457.53 0.01 -- 65.4 47.8
05/15/2022 00:00 457.53 0.00 1.49 65.5 48.3
05/14/2022 23:00 457.53 0.04 -- 66.3 48.5
05/14/2022 22:00 457.52 0.12 -- 66.9 47.0
05/14/2022 21:00 457.52 0.01 -- 69.8 46.3
05/14/2022 20:00 457.51 0.00 -- 75.9 46.0
05/14/2022 19:00 457.51 0.00 -- 76.4 46.8
05/14/2022 18:00 457.52 0.00 -- 79.5 46.8
05/14/2022 17:00 457.52 0.00 -- 80.2 47.0
05/14/2022 16:00 457.53 0.00 -- 87.2 47.8
05/14/2022 15:00 457.53 0.00 -- 90.0 47.5
05/14/2022 14:00 457.53 0.00 -- 90.4 48.0
05/14/2022 13:00 457.53 0.00 -- 90.1 47.3
05/14/2022 12:00 457.52 0.00 -- 85.2 47.0
05/14/2022 11:00 457.52 0.00 -- 85.0 46.3
05/14/2022 10:00 457.52 0.00 -- 78.4 46.0
05/14/2022 09:00 457.51 0.00 -- 71.7 46.0
05/14/2022 08:00 457.51 0.00 -- 62.2 46.3
05/14/2022 07:00 457.51 0.00 -- 59.3 46.5
05/14/2022 06:00 457.52 0.00 -- 60.4 46.8
05/14/2022 05:00 457.52 0.00 -- 60.9 46.8
05/14/2022 04:00 457.52 0.00 -- 63.4 47.0
05/14/2022 03:00 457.52 0.00 -- 66.0 47.0
05/14/2022 02:00 457.52 0.00 -- 70.6 46.8
05/14/2022 01:00 457.52 0.00 -- 70.8 47.3
05/14/2022 00:00 457.52 0.00 0.17 72.3 47.0
05/13/2022 23:00 457.53 0.00 -- 74.0 47.8
05/13/2022 22:00 457.53 0.00 -- 77.2 47.8
05/13/2022 21:00 457.53 0.00 -- 82.4 48.0
05/13/2022 20:00 457.51 0.00 -- 86.6 47.5
05/13/2022 19:00 457.53 0.00 -- 88.8 48.5
05/13/2022 18:00 457.53 0.00 -- 88.5 49.0
05/13/2022 17:00 457.53 0.00 -- 87.9 49.3
05/13/2022 16:00 457.54 0.00 -- 86.6 49.5
05/13/2022 15:00 457.54 0.00 -- 86.7 48.8
05/13/2022 14:00 457.53 0.00 -- 84.2 48.8
05/13/2022 13:00 457.54 0.00 -- 82.9 48.0
05/13/2022 12:00 457.52 0.00 -- 80.1 47.5
05/13/2022 11:00 457.52 0.00 -- 75.1 47.0
05/13/2022 10:00 457.52 0.00 -- 68.1 47.0
05/13/2022 09:00 457.52 0.00 -- 60.3 46.8
05/13/2022 08:00 457.52 0.00 -- 51.8 47.0
05/13/2022 07:00 457.52 0.00 -- 50.5 47.0
05/13/2022 06:00 457.52 0.00 -- 50.8 47.0
05/13/2022 05:00 457.52 0.00 -- 51.5 47.0
05/13/2022 04:00 457.52 0.00 -- 51.6 47.0
05/13/2022 03:00 457.52 0.00 -- 53.0 47.3
05/13/2022 02:00 457.52 0.00 -- 54.6 47.0
05/13/2022 01:00 457.52 0.00 -- 56.8 47.0
05/13/2022 00:00 457.53 0.00 0.00 59.7 48.0
05/12/2022 23:00 457.53 0.00 -- 61.6 48.0
05/12/2022 22:00 457.53 0.00 -- 67.8 47.8
05/12/2022 21:00 457.53 0.00 -- 75.1 47.8
05/12/2022 20:00 457.53 0.00 -- 80.3 47.8
05/12/2022 19:00 457.52 0.00 -- 84.8 47.3
05/12/2022 18:00 457.53 0.00 -- 87.2 47.3
05/12/2022 17:00 457.52 0.00 -- 87.7 46.5
05/12/2022 16:00 457.52 0.00 -- 84.5 46.8
05/12/2022 15:00 457.52 0.00 -- 85.7 46.5
05/12/2022 14:00 457.52 0.00 -- 83.2 46.0
05/12/2022 13:00 457.52 0.00 -- 81.6 46.3
05/12/2022 12:00 457.52 0.00 -- 77.8 46.3
05/12/2022 11:00 457.52 0.00 -- 71.3 46.0
05/12/2022 10:00 457.51 0.00 -- 64.7 46.0
05/12/2022 09:00 457.51 0.00 -- 56.0 46.0
05/12/2022 08:00 457.51 0.00 -- 43.9 46.0
05/12/2022 07:00 457.51 0.00 -- 42.2 46.0
05/12/2022 06:00 457.52 0.00 -- 42.5 46.5
05/12/2022 05:00 457.51 0.00 -- 43.5 46.3
05/12/2022 04:00 457.52 0.00 -- 44.9 46.0
05/12/2022 03:00 457.51 0.00 -- 45.7 46.0
05/12/2022 02:00 457.51 0.00 -- 47.9 46.0
05/12/2022 01:00 457.52 0.00 -- 49.5 46.0
05/12/2022 00:00 457.51 0.00 0.00 52.7 46.0
05/11/2022 23:00 457.51 0.00 -- 56.1 46.0
05/11/2022 22:00 457.51 0.00 -- 60.9 46.0
05/11/2022 21:00 457.51 0.00 -- 69.0 46.0
05/11/2022 20:00 457.51 0.00 -- 77.9 46.0
05/11/2022 19:00 457.51 0.00 -- 80.3 46.0
05/11/2022 18:00 457.51 0.00 -- 79.8 45.3
05/11/2022 17:00 457.50 0.00 -- 77.6 44.0
05/11/2022 16:00 457.50 0.00 -- 76.8 44.3
05/11/2022 15:00 457.50 0.00 -- 74.3 43.8
05/11/2022 14:00 457.49 0.00 -- 72.5 43.0
05/11/2022 13:00 457.49 0.00 -- 70.1 42.5
05/11/2022 12:00 457.49 0.00 -- 67.5 42.5
05/11/2022 11:00 457.48 0.00 -- 61.8 42.0
05/11/2022 10:00 457.48 0.00 -- 58.3 41.3
05/11/2022 09:00 457.47 0.00 -- 48.5 41.0
05/11/2022 08:00 457.47 0.00 -- 39.4 41.0
05/11/2022 07:00 457.47 0.00 -- 35.3 40.3
05/11/2022 06:00 457.46 0.00 -- 37.9 40.0
05/11/2022 05:00 457.46 0.00 -- 36.9 39.0
05/11/2022 04:00 457.45 0.00 -- 38.7 39.0
05/11/2022 03:00 457.45 0.00 -- 41.2 39.0
05/11/2022 02:00 457.45 0.00 -- 43.9 38.0
05/11/2022 01:00 457.44 0.00 -- 44.8 37.0
05/11/2022 00:00 457.43 0.00 0.00 48.1 36.5
05/10/2022 23:00 457.43 0.00 -- 53.4 35.8
05/10/2022 22:00 457.42 0.00 -- 57.9 34.8
05/10/2022 21:00 457.41 0.00 -- 63.7 34.3
05/10/2022 20:00 457.40 0.00 -- 71.9 33.0
05/10/2022 19:00 457.38 0.00 -- 73.8 31.3
05/10/2022 18:00 457.38 0.00 -- 75.0 30.3
05/10/2022 17:00 457.37 0.00 -- 74.1 29.3
05/10/2022 16:00 457.35 0.00 -- 73.8 27.5
05/10/2022 15:00 457.33 0.00 -- 69.6 25.3
05/10/2022 14:00 457.31 0.00 -- 69.1 24.5
05/10/2022 13:00 457.30 0.00 -- 65.5 22.5
05/10/2022 12:00 457.29 0.00 -- 62.6 21.3
05/10/2022 11:00 457.27 0.00 -- 60.1 19.5
05/10/2022 10:00 457.25 0.00 -- 57.0 17.8
05/10/2022 09:00 457.23 0.00 -- 47.5 16.3
05/10/2022 08:00 457.21 0.00 -- 38.7 14.8
05/10/2022 07:00 457.20 0.00 -- 33.4 13.3
05/10/2022 06:00 457.18 0.00 -- 35.2 11.5
05/10/2022 05:00 457.15 0.00 -- 36.7 10.3
05/10/2022 04:00 457.13 0.00 -- 36.1 8.8
05/10/2022 03:00 457.11 0.00 -- 37.3 7.3
05/10/2022 02:00 457.09 0.00 -- 40.3 5.8
05/10/2022 01:00 457.07 0.00 -- 43.2 4.3
05/10/2022 00:00 457.05 0.00 0.00 47.1 3.3
05/09/2022 23:00 457.02 0.00 -- 51.5 2.0
05/09/2022 22:00 456.99 0.00 -- 57.2 1.0
05/09/2022 21:00 456.96 0.00 -- 62.1 0.0
05/09/2022 20:00 456.94 0.00 -- 69.0 0.0
05/09/2022 19:00 456.90 0.00 -- 71.1 0.0
05/09/2022 18:00 456.88 0.00 -- 71.7 0.0
05/09/2022 17:00 456.85 0.00 -- 69.0 0.0
05/09/2022 16:00 456.84 0.00 -- 70.2 0.0
05/09/2022 15:00 456.79 0.00 -- 67.9 0.0
05/09/2022 14:00 456.79 0.00 -- 66.6 47.0
05/09/2022 13:00 456.74 0.00 -- 64.9 61.0
05/09/2022 12:00 456.72 0.00 -- 61.6 60.0
05/09/2022 11:00 456.73 0.00 -- 59.5 60.8
05/09/2022 10:00 456.73 0.00 -- 55.4 61.0
05/09/2022 09:00 456.73 0.00 -- 43.7 61.3
05/09/2022 08:00 456.73 0.00 -- 35.8 62.0
05/09/2022 07:00 456.74 0.00 -- 31.6 62.3
05/09/2022 06:00 456.74 0.00 -- 31.9 62.5
05/09/2022 05:00 456.74 0.00 -- 32.9 63.0
05/09/2022 04:00 456.75 0.00 -- 35.1 63.0
05/09/2022 03:00 456.74 0.00 -- 36.1 63.5
05/09/2022 02:00 456.75 0.00 -- 37.4 64.0
05/09/2022 01:00 456.75 0.00 -- 39.9 63.8
05/09/2022 00:00 456.75 0.00 0.00 42.5 64.3
05/08/2022 23:00 456.76 0.00 -- 45.9 64.5
05/08/2022 22:00 456.76 0.00 -- 51.9 65.0
05/08/2022 21:00 456.76 0.00 -- 57.6 65.0
05/08/2022 20:00 456.76 0.00 -- 63.2 64.8
05/08/2022 19:00 456.76 0.00 -- 64.5 65.0
05/08/2022 18:00 456.76 0.00 -- 62.2 64.3
05/08/2022 17:00 456.75 0.00 -- 63.7 64.8
05/08/2022 16:00 456.75 0.00 -- 62.6 64.5
05/08/2022 15:00 456.75 0.00 -- 61.5 64.5
05/08/2022 14:00 456.76 0.00 -- 59.8 64.3
05/08/2022 13:00 456.75 0.00 -- 56.8 63.8
05/08/2022 12:00 456.76 0.00 -- 56.7 64.3
05/08/2022 11:00 456.75 0.00 -- 52.7 64.3
05/08/2022 10:00 456.76 0.00 -- 47.4 65.0
05/08/2022 09:00 456.76 0.00 -- 39.8 65.0
05/08/2022 08:00 456.76 0.00 -- 34.8 65.5
05/08/2022 07:00 456.76 0.00 -- 33.1 65.8
05/08/2022 06:00 456.77 0.00 -- 32.9 66.0
05/08/2022 05:00 456.77 0.00 -- 33.4 66.3
05/08/2022 04:00 456.77 0.00 -- 33.7 66.8
05/08/2022 03:00 456.78 0.00 -- 34.3 67.0
05/08/2022 02:00 456.78 0.00 -- 37.0 67.0
05/08/2022 01:00 456.78 0.00 -- 39.1 67.5
05/08/2022 00:00 456.78 0.00 0.00 41.3 68.0
05/07/2022 23:00 456.79 0.00 -- 44.6 68.8
05/07/2022 22:00 456.79 0.00 -- 48.3 69.0
05/07/2022 21:00 456.79 0.00 -- 50.6 69.0
05/07/2022 20:00 456.79 0.00 -- 55.8 69.3
05/07/2022 19:00 456.80 0.00 -- 58.4 69.5
05/07/2022 18:00 456.80 0.00 -- 58.8 69.3
05/07/2022 17:00 456.79 0.00 -- 57.9 69.5
05/07/2022 16:00 456.79 0.00 -- 57.6 69.0
05/07/2022 15:00 456.80 0.00 -- 55.7 69.5
05/07/2022 14:00 456.80 0.00 -- 54.9 69.8
05/07/2022 13:00 456.79 0.00 -- 54.6 69.0
05/07/2022 12:00 456.79 0.00 -- 50.6 69.5
05/07/2022 11:00 456.79 0.00 -- 49.3 69.5
05/07/2022 10:00 456.80 0.00 -- 46.0 70.0
05/07/2022 09:00 456.80 0.00 -- 44.9 70.5
05/07/2022 08:00 456.81 0.00 -- 43.4 71.0
05/07/2022 07:00 456.81 0.00 -- 42.0 71.3
05/07/2022 06:00 456.81 0.00 -- 43.6 71.8
05/07/2022 05:00 456.82 0.00 -- 44.7 72.0
05/07/2022 04:00 456.82 0.00 -- 42.2 73.0
05/07/2022 03:00 456.82 0.00 -- 43.5 73.0
05/07/2022 02:00 456.82 0.00 -- 43.3 73.3
05/07/2022 01:00 456.82 0.00 -- 46.3 73.3
05/07/2022 00:00 456.82 0.00 0.00 48.2 73.5
05/06/2022 23:00 456.83 0.00 -- 49.6 74.0
05/06/2022 22:00 456.83 0.00 -- 53.3 74.0
05/06/2022 21:00 456.83 0.00 -- 59.1 74.0
05/06/2022 20:00 456.83 0.00 -- 62.4 74.8
05/06/2022 19:00 456.83 0.00 -- 64.2 74.8
05/06/2022 18:00 456.84 0.00 -- 65.6 76.0
05/06/2022 17:00 456.84 0.00 -- 66.3 75.8
05/06/2022 16:00 456.84 0.00 -- 64.5 75.3
05/06/2022 15:00 456.84 0.00 -- 64.8 76.3
05/06/2022 14:00 456.85 0.00 -- 64.9 75.8
05/06/2022 13:00 456.84 0.00 -- 65.2 76.3
05/06/2022 12:00 456.84 0.00 -- 59.9 76.3
05/06/2022 11:00 456.84 0.00 -- 61.0 76.0
05/06/2022 10:00 456.85 0.00 -- 53.1 77.0
05/06/2022 09:00 456.85 0.00 -- 46.1 76.8
05/06/2022 08:00 456.85 0.00 -- 39.6 76.5
05/06/2022 07:00 456.85 0.00 -- 37.8 77.3
05/06/2022 06:00 456.85 0.00 -- 38.7 77.0
05/06/2022 05:00 456.85 0.00 -- 39.7 77.8
05/06/2022 04:00 456.85 0.00 -- 41.2 77.5
05/06/2022 03:00 456.86 0.00 -- 41.8 77.8
05/06/2022 02:00 456.86 0.00 -- 44.1 78.0
05/06/2022 01:00 456.86 0.00 -- 46.2 78.0
05/06/2022 00:00 456.86 0.00 0.00 51.7 77.8
05/05/2022 23:00 456.85 0.00 -- 52.3 78.0
05/05/2022 22:00 456.86 0.00 -- 56.0 77.8
05/05/2022 21:00 456.86 0.00 -- 58.5 78.5
05/05/2022 20:00 456.86 0.00 -- 62.4 79.0
05/05/2022 19:00 456.86 0.00 -- 64.7 78.5
05/05/2022 18:00 456.86 0.00 -- 64.7 78.8
05/05/2022 17:00 456.86 0.00 -- 64.7 78.3
05/05/2022 16:00 456.87 0.00 -- 64.4 78.8
05/05/2022 15:00 456.87 0.00 -- 63.4 79.3
05/05/2022 14:00 456.86 0.00 -- 63.7 77.8
05/05/2022 13:00 456.86 0.00 -- 61.4 78.0
05/05/2022 12:00 456.86 0.00 -- 57.0 77.3
05/05/2022 11:00 456.85 0.00 -- 57.0 75.8
05/05/2022 10:00 456.84 0.00 -- 52.0 75.5
05/05/2022 09:00 456.84 0.00 -- 46.5 75.5
05/05/2022 08:00 456.84 0.00 -- 42.4 75.5
05/05/2022 07:00 456.83 0.00 -- 40.4 74.8
05/05/2022 06:00 456.84 0.00 -- 43.5 75.0
05/05/2022 05:00 456.83 0.00 -- 42.9 75.0
05/05/2022 04:00 456.83 0.00 -- 44.8 74.3
05/05/2022 03:00 456.83 0.00 -- 45.3 74.0
05/05/2022 02:00 456.83 0.00 -- 46.6 74.3
05/05/2022 01:00 456.83 0.00 -- 48.3 73.5
05/05/2022 00:00 456.82 0.00 0.00 49.4 73.0
05/04/2022 23:00 456.82 0.01 -- 49.6 72.5
05/04/2022 22:00 456.82 0.02 -- 49.8 71.8
05/04/2022 21:00 456.81 0.15 -- 49.7 71.3
05/04/2022 20:00 456.80 0.00 -- 50.3 69.5
05/04/2022 19:00 456.79 0.00 -- 50.9 69.3
05/04/2022 18:00 456.79 0.00 -- 50.9 69.0
05/04/2022 17:00 456.79 0.00 -- 50.9 68.3
05/04/2022 16:00 456.79 0.01 -- 49.6 68.3
05/04/2022 15:00 456.78 0.01 -- 49.0 68.0
05/04/2022 14:00 456.78 0.01 -- 49.3 67.5
05/04/2022 13:00 456.78 0.04 -- 48.4 67.3
05/04/2022 12:00 456.77 0.03 -- 48.0 66.8
05/04/2022 11:00 456.78 0.08 -- 47.7 66.5
05/04/2022 10:00 456.77 0.07 -- 47.4 66.0
05/04/2022 09:00 456.76 0.03 -- 46.5 65.3
05/04/2022 08:00 456.76 0.00 -- 46.4 66.0
05/04/2022 07:00 456.77 0.00 -- 46.4 65.5
05/04/2022 06:00 456.76 0.00 -- 46.3 65.0
05/04/2022 05:00 456.76 0.01 -- 46.6 65.3
05/04/2022 04:00 456.76 0.01 -- 46.3 65.5
05/04/2022 03:00 456.76 0.04 -- 46.6 65.3
05/04/2022 02:00 456.76 0.00 -- 49.2 65.0
05/04/2022 01:00 456.76 0.00 -- 49.8 65.5
05/04/2022 00:00 456.76 0.00 0.52 51.5 65.3
05/03/2022 23:00 456.77 0.00 -- 53.5 65.8
05/03/2022 22:00 456.77 0.00 -- 55.1 66.8
05/03/2022 21:00 456.76 0.00 -- 56.6 66.3
05/03/2022 20:00 456.77 0.00 -- 58.0 66.3
05/03/2022 19:00 456.78 0.00 -- 58.6 67.0
05/03/2022 18:00 456.78 0.00 -- 59.5 66.8
05/03/2022 17:00 456.77 0.00 -- 58.7 67.0
05/03/2022 16:00 456.78 0.00 -- 57.5 67.0
05/03/2022 15:00 456.78 0.00 -- 57.0 66.3
05/03/2022 14:00 456.77 0.00 -- 57.0 66.5
05/03/2022 13:00 456.77 0.00 -- 53.6 66.0
05/03/2022 12:00 456.77 0.00 -- 51.3 66.0
05/03/2022 11:00 456.77 0.00 -- 50.3 66.0
05/03/2022 10:00 456.77 0.00 -- 48.3 66.0
05/03/2022 09:00 456.77 0.00 -- 46.9 66.3
05/03/2022 08:00 456.77 0.00 -- 46.1 66.3
05/03/2022 07:00 456.77 0.00 -- 45.2 66.5
05/03/2022 06:00 456.77 0.01 -- 45.5 66.0
05/03/2022 05:00 456.77 0.00 -- 45.7 66.0
05/03/2022 04:00 456.77 0.00 -- 45.6 66.5
05/03/2022 03:00 456.77 0.01 -- 45.9 66.5
05/03/2022 02:00 456.78 0.02 -- 45.8 67.3
05/03/2022 01:00 456.78 0.01 -- 46.7 67.0
05/03/2022 00:00 456.77 0.00 0.05 47.5 67.0
05/02/2022 23:00 456.78 0.00 -- 48.8 67.3
05/02/2022 22:00 456.78 0.00 -- 50.0 67.3
05/02/2022 21:00 456.78 0.00 -- 51.8 67.5
05/02/2022 20:00 456.78 0.00 -- 52.7 68.0
05/02/2022 19:00 456.78 0.00 -- 55.6 67.8
05/02/2022 18:00 456.78 0.00 -- 57.2 68.3
05/02/2022 17:00 456.78 0.00 -- 57.7 68.3
05/02/2022 16:00 456.78 0.00 -- 59.6 68.0
05/02/2022 15:00 456.79 0.00 -- 61.0 67.5
05/02/2022 14:00 456.78 0.00 -- 61.0 66.8
05/02/2022 13:00 456.78 0.00 -- 58.7 67.3
05/02/2022 12:00 456.77 0.00 -- 56.7 67.3
05/02/2022 11:00 456.78 0.00 -- 53.4 67.5
05/02/2022 10:00 456.78 0.00 -- 49.3 67.8
05/02/2022 09:00 456.78 0.00 -- 42.9 68.0
05/02/2022 08:00 456.78 0.00 -- 37.6 68.0
05/02/2022 07:00 456.78 0.00 -- 34.3 68.3
05/02/2022 06:00 456.79 0.00 -- 36.5 68.8
05/02/2022 05:00 456.79 0.00 -- 37.6 69.0
05/02/2022 04:00 456.79 0.00 -- 39.0 69.0
05/02/2022 03:00 456.80 0.00 -- 40.1 69.8
05/02/2022 02:00 456.80 0.00 -- 43.2 70.3
05/02/2022 01:00 456.80 0.00 -- 46.1 70.3
05/02/2022 00:00 456.80 0.00 0.00 48.1 69.5
05/01/2022 23:00 456.80 0.00 -- 50.0 70.0
05/01/2022 22:00 456.80 0.00 -- 55.1 70.0
05/01/2022 21:00 456.80 0.00 -- 62.3 69.5
05/01/2022 20:00 456.80 0.00 -- 70.0 70.3
05/01/2022 19:00 456.80 0.00 -- 72.6 69.8
05/01/2022 18:00 456.80 0.00 -- 73.0 70.0
05/01/2022 17:00 456.80 0.00 -- 70.7 70.3
05/01/2022 16:00 456.80 0.00 -- 70.0 69.8
05/01/2022 15:00 456.79 0.00 -- 70.3 69.0
05/01/2022 14:00 456.79 0.00 -- 65.4 68.5
05/01/2022 13:00 456.79 0.00 -- 63.7 69.3
05/01/2022 12:00 456.80 0.00 -- 60.9 69.5
05/01/2022 11:00 456.79 0.00 -- 60.0 69.5
05/01/2022 10:00 456.80 0.00 -- 55.8 69.3
05/01/2022 09:00 456.79 0.00 -- 46.6 69.0
05/01/2022 08:00 456.79 0.00 -- 35.4 69.0
05/01/2022 07:00 456.79 0.00 -- 33.2 69.5
05/01/2022 06:00 456.80 0.00 -- 33.8 70.0
05/01/2022 05:00 456.80 0.00 -- 33.8 70.0
05/01/2022 04:00 456.81 0.00 -- 33.8 70.8
05/01/2022 03:00 456.80 0.00 -- 35.5 70.8
05/01/2022 02:00 456.80 0.00 -- 36.4 70.8
05/01/2022 01:00 456.81 0.00 -- 38.5 71.0
05/01/2022 00:00 456.81 0.00 0.00 42.0 71.3
04/30/2022 23:00 456.81 0.00 -- 44.3 72.3
04/30/2022 22:00 456.82 0.00 -- 49.1 72.0
04/30/2022 21:00 456.82 0.00 -- 51.9 72.5
04/30/2022 20:00 456.82 0.00 -- 55.5 72.3
04/30/2022 19:00 456.82 0.00 -- 57.8 72.8
04/30/2022 18:00 456.81 0.00 -- 56.2 72.3
04/30/2022 17:00 456.83 0.00 -- 57.6 73.5
04/30/2022 16:00 456.82 0.00 -- 56.4 73.3
04/30/2022 15:00 456.83 0.00 -- 55.0 72.8
04/30/2022 14:00 456.81 0.00 -- 52.8 72.0
04/30/2022 13:00 456.80 0.00 -- 52.2 71.0
04/30/2022 12:00 456.81 0.00 -- 50.2 70.8
04/30/2022 11:00 456.81 0.00 -- 48.2 71.3
04/30/2022 10:00 456.81 0.00 -- 45.0 72.0
04/30/2022 09:00 456.82 0.00 -- 44.4 71.8
04/30/2022 08:00 456.81 0.00 -- 42.1 72.0
04/30/2022 07:00 456.81 0.00 -- 42.2 72.3
04/30/2022 06:00 456.81 0.00 -- 41.7 72.3
04/30/2022 05:00 456.82 0.00 -- 41.6 72.5
04/30/2022 04:00 456.82 0.00 -- 42.5 73.0
04/30/2022 03:00 456.82 0.00 -- 42.8 73.3
04/30/2022 02:00 456.82 0.00 -- 43.4 73.3
04/30/2022 01:00 456.82 0.00 -- 44.1 73.0
04/30/2022 00:00 456.82 0.00 0.00 45.0 73.3
04/29/2022 23:00 456.83 0.00 -- 45.4 73.5
04/29/2022 22:00 456.83 0.00 -- 45.7 74.0
04/29/2022 21:00 456.83 0.00 -- 46.3 74.3
04/29/2022 20:00 456.84 0.00 -- 47.4 75.0
04/29/2022 19:00 456.84 0.00 -- 49.1 75.8
04/29/2022 18:00 456.84 0.00 -- 47.9 74.3
04/29/2022 17:00 456.84 0.00 -- 46.9 75.8
04/29/2022 16:00 456.85 0.00 -- 45.6 75.8
04/29/2022 15:00 456.84 0.00 -- 46.2 74.5
04/29/2022 14:00 456.84 0.00 -- 47.0 73.8
04/29/2022 13:00 456.84 0.00 -- 45.8 74.0
04/29/2022 12:00 456.83 0.00 -- 44.3 73.3
04/29/2022 11:00 456.82 0.00 -- 42.5 74.8
04/29/2022 10:00 456.82 0.00 -- 38.8 72.8
04/29/2022 09:00 456.82 0.00 -- 37.8 72.8
04/29/2022 08:00 456.83 0.00 -- 37.1 73.8
04/29/2022 07:00 456.83 0.00 -- 37.2 73.8
04/29/2022 06:00 456.82 0.00 -- 37.4 74.0
04/29/2022 05:00 456.82 0.00 -- 38.2 73.8
04/29/2022 04:00 456.82 0.00 -- 38.0 74.0
04/29/2022 03:00 456.83 0.00 -- 39.8 74.0
04/29/2022 02:00 456.84 0.00 -- 40.5 75.3
04/29/2022 01:00 456.83 0.00 -- 41.9 74.5
04/29/2022 00:00 456.83 0.00 0.00 43.3 74.5
04/28/2022 23:00 456.83 0.00 -- 43.1 74.8
04/28/2022 22:00 456.84 0.00 -- 44.2 74.8
04/28/2022 21:00 456.84 0.00 -- 44.9 74.8
04/28/2022 20:00 456.83 0.00 -- 45.8 74.8
04/28/2022 19:00 456.83 0.00 -- 46.1 74.3
04/28/2022 18:00 456.85 0.00 -- 47.5 76.0
04/28/2022 17:00 456.85 0.00 -- 47.4 74.5
04/28/2022 16:00 456.83 0.00 -- 46.8 74.3
04/28/2022 15:00 456.84 0.00 -- 46.6 74.5
04/28/2022 14:00 456.84 0.00 -- 44.4 74.5
04/28/2022 13:00 456.83 0.00 -- 43.3 74.5
04/28/2022 12:00 456.81 0.00 -- 41.5 72.8
04/28/2022 11:00 456.82 0.00 -- 41.2 72.3
04/28/2022 10:00 456.82 0.00 -- 41.0 72.0
04/28/2022 09:00 456.80 0.00 -- 38.0 71.0
04/28/2022 08:00 456.80 0.00 -- 36.9 71.5
04/28/2022 07:00 456.80 0.00 -- 36.0 69.3
04/28/2022 06:00 456.81 0.00 -- 35.8 70.3
04/28/2022 05:00 456.80 0.00 -- 36.6 69.5
04/28/2022 04:00 456.77 0.00 -- 37.6 67.8
04/28/2022 03:00 456.79 0.00 -- 38.8 67.3
04/28/2022 02:00 456.78 0.00 -- 40.0 67.0
04/28/2022 01:00 456.76 0.00 -- 40.5 66.3
04/28/2022 00:00 456.76 0.00 0.00 40.5 64.3
04/27/2022 23:00 456.74 0.00 -- 40.1 63.0
04/27/2022 22:00 456.73 0.00 -- 41.4 61.5
04/27/2022 21:00 456.72 0.00 -- 42.1 59.3
04/27/2022 20:00 456.70 0.00 -- 43.2 58.0
04/27/2022 19:00 456.69 0.00 -- 45.7 55.5
04/27/2022 18:00 456.68 0.00 -- 47.4 53.8
04/27/2022 17:00 456.64 0.00 -- 48.1 51.0
04/27/2022 16:00 456.65 0.00 -- 48.8 49.5
04/27/2022 15:00 456.62 0.00 -- 49.6 47.3
04/27/2022 14:00 456.60 0.00 -- 50.0 44.8
04/27/2022 13:00 456.57 0.00 -- 49.8 42.0
04/27/2022 12:00 456.55 0.00 -- 49.8 39.0
04/27/2022 11:00 456.53 0.00 -- 49.1 36.3
04/27/2022 10:00 456.50 0.01 -- 47.8 33.5
04/27/2022 09:00 456.47 0.02 -- 46.7 30.8
04/27/2022 08:00 456.43 0.00 -- 48.4 26.5
04/27/2022 07:00 456.39 0.00 -- 48.5 22.8
04/27/2022 06:00 456.36 0.00 -- 48.9 20.5
04/27/2022 05:00 456.33 0.02 -- 49.0 18.3
04/27/2022 04:00 456.29 0.02 -- 49.0 16.5
04/27/2022 03:00 456.25 0.05 -- 49.3 15.0
04/27/2022 02:00 456.21 0.06 -- 49.3 13.5
04/27/2022 01:00 456.17 0.03 -- 49.9 11.8
04/27/2022 00:00 456.12 0.00 0.21 50.1 10.3
04/26/2022 23:00 456.08 0.01 -- 50.5 8.8
04/26/2022 22:00 456.04 0.00 -- 50.9 7.5
04/26/2022 21:00 455.99 0.00 -- 51.5 6.3
04/26/2022 20:00 455.94 0.01 -- 52.8 4.8
04/26/2022 19:00 455.90 0.00 -- 53.8 3.5
04/26/2022 18:00 455.85 0.00 -- 54.1 2.3
04/26/2022 17:00 455.80 0.00 -- 53.3 1.3
04/26/2022 16:00 455.75 0.00 -- 54.9 0.5
04/26/2022 15:00 455.69 0.00 -- 56.0 0.0
04/26/2022 14:00 455.65 0.00 -- 53.9 0.0
04/26/2022 13:00 455.60 0.00 -- 53.7 27.0
04/26/2022 12:00 455.46 0.00 -- 51.6 92.8
04/26/2022 11:00 455.45 0.00 -- 50.1 91.3
04/26/2022 10:00 455.44 0.00 -- 49.4 90.3
04/26/2022 09:00 455.45 0.00 -- 49.2 92.3
04/26/2022 08:00 455.46 0.00 -- 48.2 93.8
04/26/2022 07:00 455.47 0.00 -- 48.0 94.8
04/26/2022 06:00 455.48 0.00 -- 47.0 94.0
04/26/2022 05:00 455.45 0.00 -- 46.6 94.5
04/26/2022 04:00 455.46 0.00 -- 46.2 92.5
04/26/2022 03:00 455.49 0.00 -- 45.5 96.3
04/26/2022 02:00 455.48 0.00 -- 44.3 96.0
04/26/2022 01:00 455.49 0.00 -- 45.1 96.8
04/26/2022 00:00 455.49 0.00 0.02 45.9 96.3
04/25/2022 23:00 455.48 0.00 -- 48.0 96.0
04/25/2022 22:00 455.49 0.00 -- 50.7 96.3
04/25/2022 21:00 455.47 0.00 -- 53.6 94.8
04/25/2022 20:00 455.49 0.00 -- 60.6 95.5
04/25/2022 19:00 455.49 0.00 -- 62.4 96.3
04/25/2022 18:00 455.48 0.00 -- 63.9 96.3
04/25/2022 17:00 455.48 0.00 -- 63.1 95.3
04/25/2022 16:00 455.47 0.00 -- 60.9 94.5
04/25/2022 15:00 455.46 0.00 -- 59.8 93.5
04/25/2022 14:00 455.48 0.00 -- 58.5 94.8
04/25/2022 13:00 455.48 0.00 -- 57.5 94.8
04/25/2022 12:00 455.47 0.00 -- 55.6 94.0
04/25/2022 11:00 455.48 0.00 -- 53.4 94.8
04/25/2022 10:00 455.46 0.00 -- 50.4 94.0
04/25/2022 09:00 455.48 0.00 -- 42.9 94.8
04/25/2022 08:00 455.47 0.00 -- 39.3 95.5
04/25/2022 07:00 455.48 0.00 -- 38.7 95.3
04/25/2022 06:00 455.48 0.00 -- 39.7 96.8
04/25/2022 05:00 455.48 0.00 -- 41.3 96.8
04/25/2022 04:00 455.49 0.00 -- 41.9 97.5
04/25/2022 03:00 455.49 0.00 -- 43.8 96.8
04/25/2022 02:00 455.50 0.00 -- 44.1 98.3
04/25/2022 01:00 455.49 0.00 -- 44.3 97.0
04/25/2022 00:00 455.49 0.00 0.00 44.9 97.0
04/24/2022 23:00 455.49 0.00 -- 46.5 97.8
04/24/2022 22:00 455.48 0.00 -- 51.0 96.8
04/24/2022 21:00 455.49 0.00 -- 53.3 97.3
04/24/2022 20:00 455.50 0.00 -- 54.4 98.0
04/24/2022 19:00 455.50 0.00 -- 57.5 98.3
04/24/2022 18:00 455.48 0.00 -- 59.7 96.5
04/24/2022 17:00 455.49 0.00 -- 60.4 96.3
04/24/2022 16:00 455.48 0.00 -- 55.4 95.0
04/24/2022 15:00 455.48 0.00 -- 53.5 95.3
04/24/2022 14:00 455.48 0.00 -- 49.8 95.3
04/24/2022 13:00 455.48 0.00 -- 48.8 95.5
04/24/2022 12:00 455.47 0.00 -- 46.4 95.5
04/24/2022 11:00 455.48 0.00 -- 44.2 95.5
04/24/2022 10:00 455.48 0.00 -- 42.7 96.0
04/24/2022 09:00 455.49 0.00 -- 39.1 97.5
04/24/2022 08:00 455.48 0.00 -- 34.5 96.5
04/24/2022 07:00 455.48 0.00 -- 32.9 97.5
04/24/2022 06:00 455.50 0.00 -- 32.4 100.0
04/24/2022 05:00 455.49 0.00 -- 33.4 97.8
04/24/2022 04:00 455.50 0.00 -- 36.4 99.5
04/24/2022 03:00 455.50 0.00 -- 39.6 99.5
04/24/2022 02:00 455.51 0.00 -- 42.2 99.3
04/24/2022 01:00 455.50 0.00 -- 43.6 100.5
04/24/2022 00:00 455.51 0.00 0.00 43.7 100.5
04/23/2022 23:00 455.51 0.00 -- 47.6 101.5
04/23/2022 22:00 455.52 0.00 -- 50.6 101.0
04/23/2022 21:00 455.52 0.00 -- 52.1 101.5
04/23/2022 20:00 455.52 0.00 -- 54.8 101.0
04/23/2022 19:00 455.52 0.00 -- 56.6 102.3
04/23/2022 18:00 455.52 0.00 -- 57.4 102.8
04/23/2022 17:00 455.51 0.00 -- 58.0 102.3
04/23/2022 16:00 455.53 0.00 -- 59.3 102.8
04/23/2022 15:00 455.54 0.00 -- 59.5 103.5
04/23/2022 14:00 455.50 0.00 -- 53.6 100.5
04/23/2022 13:00 455.52 0.00 -- 50.4 101.8
04/23/2022 12:00 455.52 0.00 -- 49.7 101.8
04/23/2022 11:00 455.52 0.00 -- 48.0 103.3
04/23/2022 10:00 455.54 0.00 -- 46.9 105.3
04/23/2022 09:00 455.55 0.00 -- 41.6 105.8
04/23/2022 08:00 455.56 0.00 -- 33.5 107.0
04/23/2022 07:00 455.56 0.00 -- 30.1 107.0
04/23/2022 06:00 455.56 0.00 -- 30.6 108.5
04/23/2022 05:00 455.56 0.00 -- 32.3 108.0
04/23/2022 04:00 455.56 0.00 -- 35.6 108.5
04/23/2022 03:00 455.56 0.00 -- 41.0 108.0
04/23/2022 02:00 455.56 0.00 -- 37.6 107.5
04/23/2022 01:00 455.57 0.00 -- 43.8 110.0
04/23/2022 00:00 455.58 0.00 0.00 46.6 111.0
04/22/2022 23:00 455.58 0.00 -- 47.9 111.5
04/22/2022 22:00 455.58 0.00 -- 49.2 111.5
04/22/2022 21:00 455.59 0.00 -- 50.4 111.8
04/22/2022 20:00 455.59 0.00 -- 52.4 112.8
04/22/2022 19:00 455.58 0.00 -- 55.9 111.0
04/22/2022 18:00 455.60 0.00 -- 55.5 112.8
04/22/2022 17:00 455.60 0.00 -- 53.6 113.3
04/22/2022 16:00 455.60 0.00 -- 54.2 114.0
04/22/2022 15:00 455.58 0.00 -- 51.8 110.8
04/22/2022 14:00 455.59 0.00 -- 48.1 112.5
04/22/2022 13:00 455.60 0.00 -- 51.2 112.8
04/22/2022 12:00 455.59 0.00 -- 51.8 112.8
04/22/2022 11:00 455.59 0.00 -- 54.0 112.5
04/22/2022 10:00 455.58 0.00 -- 52.4 112.7
04/22/2022 09:00 455.60 0.00 -- 52.3 114.0
04/22/2022 08:00 455.60 0.00 -- 52.0 114.0
04/22/2022 07:00 455.61 0.00 -- 51.7 114.0
04/22/2022 06:00 455.61 0.00 -- 51.4 114.0
04/22/2022 05:00 455.62 0.00 -- 51.1 114.0
04/22/2022 04:00 455.62 0.00 -- 50.8 114.0
04/22/2022 03:00 455.62 0.00 -- 50.5 114.0
04/22/2022 02:00 455.63 0.00 -- 50.2 114.0
04/22/2022 01:00 455.63 0.00 -- 49.9 119.0
04/22/2022 00:00 455.62 0.00 0.00 49.6 119.0
04/21/2022 23:00 455.61 0.00 -- 47.3 118.0
04/21/2022 22:00 455.63 0.00 -- 47.7 120.3
04/21/2022 21:00 455.63 0.01 -- 48.9 119.5
04/21/2022 20:00 455.64 0.00 -- 51.7 121.3
04/21/2022 19:00 455.64 0.00 -- 54.0 119.8
04/21/2022 18:00 455.64 0.00 -- 53.7 122.0
04/21/2022 17:00 455.62 0.00 -- 53.1 118.5
04/21/2022 16:00 455.63 0.00 -- 55.0 119.5
04/21/2022 15:00 455.62 0.00 -- 54.3 119.5
04/21/2022 14:00 455.62 0.00 -- 54.7 118.8
04/21/2022 13:00 455.65 0.00 -- 53.8 119.8
04/21/2022 12:00 455.65 0.00 -- 51.1 119.8
04/21/2022 11:00 455.65 0.00 -- 48.6 121.0
04/21/2022 10:00 455.64 0.00 -- 42.7 120.5
04/21/2022 09:00 455.65 0.00 -- 34.2 121.8
04/21/2022 08:00 455.66 0.00 -- 29.1 123.3
04/21/2022 07:00 455.65 0.00 -- 27.9 123.5
04/21/2022 06:00 455.68 0.00 -- 28.1 125.8
04/21/2022 05:00 455.67 0.00 -- 30.3 127.8
04/21/2022 04:00 455.69 0.00 -- 30.4 129.0
04/21/2022 03:00 455.68 0.00 -- 32.6 129.5
04/21/2022 02:00 455.69 0.00 -- 34.4 130.0
04/21/2022 01:00 455.69 0.00 -- 35.9 130.0
04/21/2022 00:00 455.71 0.00 0.01 37.9 130.3
04/20/2022 23:00 455.73 0.00 -- 38.0 135.3
04/20/2022 22:00 455.73 0.00 -- 39.5 133.0
04/20/2022 21:00 455.70 0.00 -- 43.8 131.3
04/20/2022 20:00 455.70 0.00 -- 47.3 132.8
04/20/2022 19:00 455.72 0.00 -- 48.4 134.0
04/20/2022 18:00 455.71 0.00 -- 48.0 132.5
04/20/2022 17:00 455.71 0.00 -- 50.0 132.8
04/20/2022 16:00 455.69 0.00 -- 46.7 131.8
04/20/2022 15:00 455.72 0.00 -- 45.0 134.5
04/20/2022 14:00 455.71 0.00 -- 42.8 132.3
04/20/2022 13:00 455.73 0.00 -- 44.1 135.8
04/20/2022 12:00 455.72 0.00 -- 43.8 132.5
04/20/2022 11:00 455.72 0.00 -- 42.5 132.8
04/20/2022 10:00 455.72 0.00 -- 42.4 131.8
04/20/2022 09:00 455.73 0.00 -- 41.8 134.3
04/20/2022 08:00 455.72 0.00 -- 40.6 137.0
04/20/2022 07:00 455.75 0.00 -- 39.3 137.0
04/20/2022 06:00 455.77 0.00 -- 38.9 134.3
04/20/2022 05:00 455.75 0.00 -- 37.8 136.5
04/20/2022 04:00 455.73 0.00 -- 39.1 136.5
04/20/2022 03:00 455.70 0.00 -- 39.4 134.3
04/20/2022 02:00 455.71 0.00 -- 39.8 133.0
04/20/2022 01:00 455.73 0.00 -- 40.1 132.5
04/20/2022 00:00 455.72 0.00 0.00 40.3 130.3
04/19/2022 23:00 455.67 0.00 -- 40.8 125.8
04/19/2022 22:00 455.68 0.00 -- 42.0 126.3
04/19/2022 21:00 455.66 0.00 -- 42.8 123.5
04/19/2022 20:00 455.63 0.00 -- 43.3 121.0
04/19/2022 19:00 455.60 0.00 -- 45.5 115.8
04/19/2022 18:00 455.59 0.00 -- 47.8 113.8
04/19/2022 17:00 455.57 0.00 -- 49.3 109.8
04/19/2022 16:00 455.56 0.05 -- 48.0 107.5
04/19/2022 15:00 455.54 0.13 -- 48.7 105.8
04/19/2022 14:00 455.54 0.24 -- 47.4 103.0
04/19/2022 13:00 455.53 0.23 -- 45.8 102.0
04/19/2022 12:00 455.52 0.22 -- 43.3 101.8
04/19/2022 11:00 455.51 0.10 -- 40.1 99.8
04/19/2022 10:00 455.51 0.03 -- 37.6 99.0
04/19/2022 09:00 455.50 0.01 -- 34.9 98.3
04/19/2022 08:00 455.48 0.20 -- 33.6 95.7
04/19/2022 07:00 455.47 0.00 -- 39.8 94.0
04/19/2022 06:00 455.47 0.00 -- 39.8 94.5
04/19/2022 05:00 455.48 0.00 -- 39.7 95.5
04/19/2022 04:00 455.47 0.00 -- 40.2 95.8
04/19/2022 03:00 455.49 0.00 -- 40.0 96.3
04/19/2022 02:00 455.49 0.00 -- 41.1 96.8
04/19/2022 01:00 455.49 0.00 -- 41.3 97.8
04/19/2022 00:00 455.50 0.00 1.21 41.0 97.5
04/18/2022 23:00 455.48 0.00 -- 43.1 97.3
04/18/2022 22:00 455.49 0.00 -- 44.8 98.0
04/18/2022 21:00 455.50 0.00 -- 46.6 98.5
04/18/2022 20:00 455.49 0.00 -- 49.9 99.0
04/18/2022 19:00 455.50 0.00 -- 54.5 99.8
04/18/2022 18:00 455.53 0.00 -- 59.0 100.8
04/18/2022 17:00 455.51 0.00 -- 60.4 100.0
04/18/2022 16:00 455.51 0.00 -- 60.5 98.8
04/18/2022 15:00 455.49 0.00 -- 58.0 97.0
04/18/2022 14:00 455.47 0.00 -- 57.3 96.3
04/18/2022 13:00 455.48 0.00 -- 53.3 96.5
04/18/2022 12:00 455.49 0.00 -- 52.0 97.5
04/18/2022 11:00 455.48 0.00 -- 49.7 97.0
04/18/2022 10:00 455.49 0.00 -- 45.7 97.0
04/18/2022 09:00 455.49 0.00 -- 38.3 98.3
04/18/2022 08:00 455.50 0.00 -- 31.6 98.0
04/18/2022 07:00 455.49 0.00 -- 33.5 98.8
04/18/2022 06:00 455.50 0.00 -- 35.3 100.3
04/18/2022 05:00 455.51 0.00 -- 38.4 100.3
04/18/2022 04:00 455.52 0.00 -- 37.2 100.5
04/18/2022 03:00 455.52 0.00 -- 39.0 102.0
04/18/2022 02:00 455.52 0.00 -- 40.5 102.5
04/18/2022 01:00 455.54 0.00 -- 40.3 102.3
04/18/2022 00:00 455.53 0.00 0.00 40.1 103.0
04/17/2022 23:00 455.52 0.00 -- 39.9 101.5
04/17/2022 22:00 455.52 0.00 -- 40.1 102.3
04/17/2022 21:00 455.53 0.00 -- 38.4 102.8
04/17/2022 20:00 455.53 0.00 -- 38.1 102.0
04/17/2022 19:00 455.51 0.00 -- 40.9 101.3
04/17/2022 18:00 455.53 0.00 -- 44.9 102.8
04/17/2022 17:00 455.51 0.00 -- 45.1 101.5
04/17/2022 16:00 455.52 0.00 -- 45.2 101.5
04/17/2022 15:00 455.51 0.00 -- 44.6 101.3
04/17/2022 14:00 455.50 0.00 -- 40.1 100.8
04/17/2022 13:00 455.52 0.00 -- 43.9 99.5
04/17/2022 12:00 455.49 0.00 -- 42.0 100.0
04/17/2022 11:00 455.51 0.00 -- 42.1 98.8
04/17/2022 10:00 455.50 0.00 -- 39.6 99.3
04/17/2022 09:00 455.50 0.00 -- 39.0 99.3
04/17/2022 08:00 455.50 0.00 -- 35.9 98.8
04/17/2022 07:00 455.50 0.00 -- 36.5 99.0
04/17/2022 06:00 455.51 0.00 -- 37.6 99.3
04/17/2022 05:00 455.49 0.00 -- 37.9 98.0
04/17/2022 04:00 455.50 0.00 -- 39.5 98.3
04/17/2022 03:00 455.50 0.00 -- 40.4 97.8
04/17/2022 02:00 455.48 0.00 -- 40.9 96.8
04/17/2022 01:00 455.49 0.00 -- 41.1 97.0
04/17/2022 00:00 455.48 0.01 0.00 41.0 96.3
04/16/2022 23:00 455.49 0.00 -- 41.4 96.8
04/16/2022 22:00 455.49 0.11 -- 41.0 96.0
04/16/2022 21:00 455.48 0.14 -- 41.1 95.0
04/16/2022 20:00 455.47 0.19 -- 42.9 93.8
04/16/2022 19:00 455.46 0.07 -- 45.9 91.5
04/16/2022 18:00 455.46 0.00 -- 51.6 91.5
04/16/2022 17:00 455.44 0.00 -- 55.0 91.3
04/16/2022 16:00 455.46 0.00 -- 57.6 92.5
04/16/2022 15:00 455.46 0.00 -- 59.2 93.0
04/16/2022 14:00 455.46 0.00 -- 60.5 92.8
04/16/2022 13:00 455.47 0.00 -- 60.1 94.3
04/16/2022 12:00 455.47 0.00 -- 59.4 94.5
04/16/2022 11:00 455.46 0.00 -- 56.8 93.3
04/16/2022 10:00 455.48 0.00 -- 53.1 94.0
04/16/2022 09:00 455.48 0.00 -- 50.3 95.0
04/16/2022 08:00 455.48 0.00 -- 44.9 95.5
04/16/2022 07:00 455.48 0.00 -- 42.6 95.8
04/16/2022 06:00 455.48 0.00 -- 43.3 95.8
04/16/2022 05:00 455.49 0.00 -- 45.4 97.5
04/16/2022 04:00 455.49 0.00 -- 44.3 97.8
04/16/2022 03:00 455.49 0.00 -- 49.2 97.8
04/16/2022 02:00 455.51 0.00 -- 50.5 98.8
04/16/2022 01:00 455.51 0.00 -- 53.5 98.5
04/16/2022 00:00 455.51 0.00 0.52 50.9 100.3
04/15/2022 23:00 455.51 0.00 -- 54.6 100.5
04/15/2022 22:00 455.52 0.00 -- 53.1 100.8
04/15/2022 21:00 455.51 0.00 -- 58.1 100.0
04/15/2022 20:00 455.52 0.00 -- 60.3 100.3
04/15/2022 19:00 455.51 0.00 -- 61.8 99.8
04/15/2022 18:00 455.52 0.00 -- 62.5 100.0
04/15/2022 17:00 455.52 0.00 -- 63.4 99.3
04/15/2022 16:00 455.49 0.00 -- 62.3 97.5
04/15/2022 15:00 455.50 0.00 -- 60.7 97.5
04/15/2022 14:00 455.50 0.00 -- 59.1 98.5
04/15/2022 13:00 455.48 0.00 -- 59.3 97.3
04/15/2022 12:00 455.48 0.00 -- 57.1 96.8
04/15/2022 11:00 455.48 0.00 -- 53.1 96.3
04/15/2022 10:00 455.48 0.00 -- 44.2 97.0
04/15/2022 09:00 455.48 0.00 -- 39.7 95.8
04/15/2022 08:00 455.48 0.00 -- 39.2 96.8
04/15/2022 07:00 455.48 0.00 -- 41.2 96.8
04/15/2022 06:00 455.48 0.00 -- 42.4 97.0
04/15/2022 05:00 455.49 0.00 -- 43.5 97.5
04/15/2022 04:00 455.49 0.00 -- 43.7 97.5
04/15/2022 03:00 455.49 0.00 -- 43.7 97.8
04/15/2022 02:00 455.50 0.01 -- 43.9 98.3
04/15/2022 01:00 455.49 0.00 -- 44.2 98.3
04/15/2022 00:00 455.49 0.00 0.01 44.8 97.3
04/14/2022 23:00 455.50 0.01 -- 44.9 98.3
04/14/2022 22:00 455.49 0.03 -- 45.2 98.8
04/14/2022 21:00 455.50 0.00 -- 45.7 98.8
04/14/2022 20:00 455.51 0.01 -- 46.3 97.8
04/14/2022 19:00 455.48 0.00 -- 46.6 98.5
04/14/2022 18:00 455.50 0.00 -- 46.9 98.5
04/14/2022 17:00 455.49 0.00 -- 46.6 97.5
04/14/2022 16:00 455.51 0.00 -- 46.6 98.8
04/14/2022 15:00 455.48 0.00 -- 46.0 97.0
04/14/2022 14:00 455.50 0.00 -- 45.1 97.5
04/14/2022 13:00 455.49 0.00 -- 44.9 98.8
04/14/2022 12:00 455.50 0.00 -- 44.4 99.8
04/14/2022 11:00 455.49 0.00 -- 44.1 98.3
04/14/2022 10:00 455.50 0.00 -- 43.7 99.8
04/14/2022 09:00 455.51 0.00 -- 43.5 99.8
04/14/2022 08:00 455.51 0.01 -- 43.3 100.3
04/14/2022 07:00 455.50 0.01 -- 43.7 99.5
04/14/2022 06:00 455.50 0.00 -- 44.2 99.5
04/14/2022 05:00 455.52 0.00 -- 44.3 101.3
04/14/2022 04:00 455.50 0.00 -- 44.1 99.8
04/14/2022 03:00 455.51 0.00 -- 44.6 101.3
04/14/2022 02:00 455.52 0.00 -- 45.1 101.3
04/14/2022 01:00 455.50 0.00 -- 45.6 100.8
04/14/2022 00:00 455.50 0.00 0.07 45.8 101.3
04/13/2022 23:00 455.51 0.00 -- 46.3 100.5
04/13/2022 22:00 455.53 0.00 -- 46.9 102.5
04/13/2022 21:00 455.51 0.00 -- 46.9 101.5
04/13/2022 20:00 455.52 0.06 -- 47.5 102.3
04/13/2022 19:00 455.53 0.00 -- 48.8 103.0
04/13/2022 18:00 455.52 0.01 -- 49.4 101.8
04/13/2022 17:00 455.51 0.05 -- 49.4 102.0
04/13/2022 16:00 455.52 0.00 -- 56.8 101.5
04/13/2022 15:00 455.52 0.00 -- 58.8 101.5
04/13/2022 14:00 455.52 0.00 -- 60.1 102.5
04/13/2022 13:00 455.53 0.00 -- 59.1 103.5
04/13/2022 12:00 455.53 0.00 -- 59.4 103.8
04/13/2022 11:00 455.55 0.00 -- 53.1 105.3
04/13/2022 10:00 455.53 0.00 -- 45.9 105.5
04/13/2022 09:00 455.54 0.00 -- 39.5 105.5
04/13/2022 08:00 455.56 0.00 -- 34.1 106.8
04/13/2022 07:00 455.55 0.00 -- 34.2 107.3
04/13/2022 06:00 455.54 0.00 -- 35.6 106.5
04/13/2022 05:00 455.55 0.00 -- 36.8 107.3
04/13/2022 04:00 455.55 0.00 -- 37.3 109.3
04/13/2022 03:00 455.57 0.00 -- 38.6 109.3
04/13/2022 02:00 455.58 0.00 -- 41.1 110.8
04/13/2022 01:00 455.57 0.00 -- 44.0 110.5
04/13/2022 00:00 455.56 0.00 0.12 48.3 109.5
04/12/2022 23:00 455.57 0.00 -- 54.4 109.3
04/12/2022 22:00 455.57 0.00 -- 56.5 109.0
04/12/2022 21:00 455.56 0.00 -- 58.5 109.5
04/12/2022 20:00 455.58 0.00 -- 60.8 110.8
04/12/2022 19:00 455.58 0.00 -- 63.0 111.0
04/12/2022 18:00 455.56 0.00 -- 63.4 110.8
04/12/2022 17:00 455.56 0.00 -- 62.8 110.0
04/12/2022 16:00 455.59 0.00 -- 64.3 110.8
04/12/2022 15:00 455.58 0.00 -- 60.0 111.0
04/12/2022 14:00 455.59 0.00 -- 58.6 112.0
04/12/2022 13:00 455.58 0.00 -- 55.1 110.3
04/12/2022 12:00 455.56 0.00 -- 48.4 110.5
04/12/2022 11:00 455.57 0.01 -- 45.4 111.3
04/12/2022 10:00 455.59 0.00 -- 44.2 111.5
04/12/2022 09:00 455.58 0.00 -- 43.6 112.5
04/12/2022 08:00 455.59 0.02 -- 42.3 113.3
04/12/2022 07:00 455.59 0.04 -- 42.8 112.3
04/12/2022 06:00 455.61 0.01 -- 43.1 113.5
04/12/2022 05:00 455.61 0.00 -- 43.7 114.5
04/12/2022 04:00 455.61 0.00 -- 43.7 116.3
04/12/2022 03:00 455.61 0.00 -- 42.8 117.0
04/12/2022 02:00 455.64 0.00 -- 42.6 117.8
04/12/2022 01:00 455.62 0.00 -- 40.6 117.5
04/12/2022 00:00 455.61 0.00 0.08 42.3 118.3
04/11/2022 23:00 455.63 0.00 -- 44.2 119.3
04/11/2022 22:00 455.65 0.00 -- 48.2 120.5
04/11/2022 21:00 455.63 0.00 -- 54.8 121.3
04/11/2022 20:00 455.64 0.00 -- 60.1 120.8
04/11/2022 19:00 455.64 0.00 -- 62.2 121.5
04/11/2022 18:00 455.65 0.00 -- 62.0 122.0
04/11/2022 17:00 455.63 0.00 -- 64.0 120.5
04/11/2022 16:00 455.64 0.00 -- 62.1 120.3
04/11/2022 15:00 455.64 0.00 -- 61.2 121.0
04/11/2022 14:00 455.62 0.00 -- 57.1 119.0
04/11/2022 13:00 455.64 0.00 -- 53.4 120.5
04/11/2022 12:00 455.64 0.00 -- 50.8 121.3
04/11/2022 11:00 455.62 0.00 -- 49.6 121.0
04/11/2022 10:00 455.65 0.00 -- 44.9 120.3
04/11/2022 09:00 455.64 0.00 -- 40.7 123.0
04/11/2022 08:00 455.64 0.00 -- 35.8 121.8
04/11/2022 07:00 455.65 0.00 -- 35.9 123.8
04/11/2022 06:00 455.65 0.00 -- 39.1 124.3
04/11/2022 05:00 455.66 0.00 -- 40.4 125.8
04/11/2022 04:00 455.66 0.00 -- 41.1 126.8
04/11/2022 03:00 455.68 0.00 -- 41.2 126.5
04/11/2022 02:00 455.68 0.00 -- 42.0 127.5
04/11/2022 01:00 455.68 0.00 -- 42.6 128.8
04/11/2022 00:00 455.74 0.00 0.00 42.7 130.5
04/10/2022 23:00 455.68 0.00 -- 42.8 128.8
04/10/2022 22:00 455.71 0.00 -- 42.2 130.0
04/10/2022 21:00 455.72 0.00 -- 44.0 131.5
04/10/2022 20:00 455.73 0.00 -- 45.6 132.0
04/10/2022 19:00 455.69 0.00 -- 46.1 133.8
04/10/2022 18:00 455.72 0.00 -- 46.0 131.3
04/10/2022 17:00 455.69 0.00 -- 47.1 133.5
04/10/2022 16:00 455.71 0.00 -- 49.8 131.3
04/10/2022 15:00 455.68 0.00 -- 48.5 130.0
04/10/2022 14:00 455.70 0.00 -- 48.8 129.8
04/10/2022 13:00 455.69 0.00 -- 48.3 130.8
04/10/2022 12:00 455.71 0.00 -- 47.5 129.8
04/10/2022 11:00 455.70 0.00 -- 45.6 130.5
04/10/2022 10:00 455.73 0.00 -- 45.2 130.8
04/10/2022 09:00 455.69 0.00 -- 44.9 134.3
04/10/2022 08:00 455.72 0.00 -- 38.6 133.3
04/10/2022 07:00 455.72 0.00 -- 40.3 134.0
04/10/2022 06:00 455.75 0.00 -- 38.6 134.5
04/10/2022 05:00 455.70 0.00 -- 38.3 133.8
04/10/2022 04:00 455.73 0.00 -- 36.3 133.5
04/10/2022 03:00 455.73 0.00 -- 37.0 134.8
04/10/2022 02:00 455.73 0.00 -- 34.8 132.3
04/10/2022 01:00 455.75 0.00 -- 36.2 137.5
04/10/2022 00:00 455.73 0.00 0.00 38.5 134.8
04/09/2022 23:00 455.73 0.00 -- 39.5 134.3
04/09/2022 22:00 455.70 0.00 -- 40.7 133.8
04/09/2022 21:00 455.72 0.00 -- 43.2 133.3
04/09/2022 20:00 455.72 0.00 -- 44.2 134.8
04/09/2022 19:00 455.70 0.01 -- 44.1 134.8
04/09/2022 18:00 455.73 0.06 -- 44.3 136.3
04/09/2022 17:00 455.72 0.23 -- 43.6 134.8
04/09/2022 16:00 455.70 0.00 -- 46.0 133.5
04/09/2022 15:00 455.69 0.01 -- 46.1 134.5
04/09/2022 14:00 455.71 0.01 -- 45.2 134.8
04/09/2022 13:00 455.73 0.02 -- 42.6 135.5
04/09/2022 12:00 455.70 0.02 -- 41.7 133.3
04/09/2022 11:00 455.75 0.00 -- 40.4 136.5
04/09/2022 10:00 455.72 0.00 -- 38.6 135.8
04/09/2022 09:00 455.75 0.00 -- 35.3 138.0
04/09/2022 08:00 455.74 0.00 -- 34.0 136.5
04/09/2022 07:00 455.72 0.00 -- 33.5 138.3
04/09/2022 06:00 455.74 0.00 -- 32.5 137.3
04/09/2022 05:00 455.75 0.00 -- 31.3 137.5
04/09/2022 04:00 455.75 0.00 -- 31.9 139.0
04/09/2022 03:00 455.77 0.00 -- 33.6 139.3
04/09/2022 02:00 455.76 0.00 -- 36.4 140.5
04/09/2022 01:00 455.77 0.00 -- 37.3 139.5
04/09/2022 00:00 455.73 0.00 0.36 40.0 137.0
04/08/2022 23:00 455.76 0.00 -- 42.6 137.5
04/08/2022 22:00 455.72 0.00 -- 43.8 136.3
04/08/2022 21:00 455.74 0.00 -- 47.5 133.0
04/08/2022 20:00 455.72 0.00 -- 53.4 131.3
04/08/2022 19:00 455.68 0.00 -- 54.5 127.3
04/08/2022 18:00 455.68 0.00 -- 54.4 124.3
04/08/2022 17:00 455.65 0.00 -- 53.5 121.0
04/08/2022 16:00 455.64 0.00 -- 51.5 117.8
04/08/2022 15:00 455.59 0.00 -- 47.6 113.3
04/08/2022 14:00 455.57 0.01 -- 45.0 109.3
04/08/2022 13:00 455.57 0.01 -- 43.9 107.0
04/08/2022 12:00 455.53 0.02 -- 42.7 101.8
04/08/2022 11:00 455.50 0.04 -- 41.8 98.0
04/08/2022 10:00 455.48 0.03 -- 40.7 94.5
04/08/2022 09:00 455.46 0.30 -- 39.2 90.3
04/08/2022 08:00 455.41 0.32 -- 38.6 86.0
04/08/2022 07:00 455.40 0.33 -- 38.5 83.0
04/08/2022 06:00 455.38 0.24 -- 37.9 80.5
04/08/2022 05:00 455.37 0.04 -- 38.1 79.8
04/08/2022 04:00 455.37 0.00 -- 40.0 79.5
04/08/2022 03:00 455.37 0.00 -- 40.8 79.0
04/08/2022 02:00 455.36 0.00 -- 40.3 79.3
04/08/2022 01:00 455.37 0.00 -- 40.8 79.8
04/08/2022 00:00 455.37 0.00 1.34 40.5 80.3
04/07/2022 23:00 455.38 0.00 -- 40.9 80.3
04/07/2022 22:00 455.37 0.00 -- 41.4 80.0
04/07/2022 21:00 455.37 0.00 -- 41.6 80.3
04/07/2022 20:00 455.37 0.00 -- 41.8 81.0
04/07/2022 19:00 455.38 0.00 -- 41.6 81.0
04/07/2022 18:00 455.38 0.00 -- 42.1 81.5
04/07/2022 17:00 455.38 0.00 -- 42.1 81.3
04/07/2022 16:00 455.39 0.00 -- 41.0 82.3
04/07/2022 15:00 455.39 0.03 -- 40.4 82.5
04/07/2022 14:00 455.39 0.00 -- 41.7 82.5
04/07/2022 13:00 455.39 0.00 -- 46.0 83.5
04/07/2022 12:00 455.38 0.00 -- 46.1 83.0
04/07/2022 11:00 455.39 0.00 -- 43.8 83.3
04/07/2022 10:00 455.39 0.00 -- 41.0 83.3
04/07/2022 09:00 455.40 0.00 -- 37.6 84.3
04/07/2022 08:00 455.39 0.00 -- 35.5 85.0
04/07/2022 07:00 455.42 0.00 -- 34.7 86.0
04/07/2022 06:00 455.41 0.00 -- 35.4 85.8
04/07/2022 05:00 455.41 0.00 -- 33.8 85.8
04/07/2022 04:00 455.41 0.00 -- 33.1 86.3
04/07/2022 03:00 455.41 0.00 -- 34.1 86.0
04/07/2022 02:00 455.43 0.00 -- 37.7 87.8
04/07/2022 01:00 455.43 0.00 -- 39.6 87.5
04/07/2022 00:00 455.43 0.00 0.03 41.5 88.0
04/06/2022 23:00 455.43 0.00 -- 42.1 88.5
04/06/2022 22:00 455.43 0.00 -- 44.7 88.5
04/06/2022 21:00 455.44 0.00 -- 47.5 89.3
04/06/2022 20:00 455.44 0.00 -- 53.7 90.0
04/06/2022 19:00 455.43 0.00 -- 56.2 89.5
04/06/2022 18:00 455.45 0.00 -- 59.0 90.3
04/06/2022 17:00 455.44 0.00 -- 59.9 90.0
04/06/2022 16:00 455.43 0.00 -- 61.4 88.8
04/06/2022 15:00 455.43 0.00 -- 58.0 88.0
04/06/2022 14:00 455.43 0.00 -- 57.1 87.8
04/06/2022 13:00 455.43 0.00 -- 55.7 88.3
04/06/2022 12:00 455.43 0.00 -- 51.9 88.8
04/06/2022 11:00 455.44 0.00 -- 50.7 89.0
04/06/2022 10:00 455.44 0.00 -- 44.2 89.3
04/06/2022 09:00 455.45 0.00 -- 36.0 90.0
04/06/2022 08:00 455.45 0.00 -- 30.4 91.5
04/06/2022 07:00 455.44 0.00 -- 30.6 90.5
04/06/2022 06:00 455.45 0.00 -- 30.1 91.8
04/06/2022 05:00 455.45 0.00 -- 30.6 91.8
04/06/2022 04:00 455.46 0.00 -- 30.6 92.0
04/06/2022 03:00 455.47 0.00 -- 32.0 93.0
04/06/2022 02:00 455.46 0.00 -- 31.9 92.8
04/06/2022 01:00 455.47 0.00 -- 33.2 93.3
04/06/2022 00:00 455.46 0.00 0.00 35.2 94.8
04/05/2022 23:00 455.47 0.00 -- 38.3 93.5
04/05/2022 22:00 455.46 0.00 -- 41.4 93.5
04/05/2022 21:00 455.45 0.00 -- 46.7 92.3
04/05/2022 20:00 455.45 0.00 -- 54.5 92.5
04/05/2022 19:00 455.45 0.00 -- 56.0 92.0
04/05/2022 18:00 455.46 0.00 -- 55.7 92.0
04/05/2022 17:00 455.44 0.00 -- 55.5 91.5
04/05/2022 16:00 455.44 0.00 -- 56.9 92.5
04/05/2022 15:00 455.44 0.00 -- 56.0 92.0
04/05/2022 14:00 455.45 0.00 -- 56.0 91.8
04/05/2022 13:00 455.46 0.00 -- 53.2 90.8
04/05/2022 12:00 455.45 0.00 -- 50.8 91.8
04/05/2022 11:00 455.45 0.00 -- 50.2 92.5
04/05/2022 10:00 455.47 0.00 -- 40.3 93.5
04/05/2022 09:00 455.47 0.00 -- 33.0 95.3
04/05/2022 08:00 455.47 0.00 -- 27.6 95.0
04/05/2022 07:00 455.48 0.00 -- 28.6 95.8
04/05/2022 06:00 455.49 0.00 -- 29.8 96.3
04/05/2022 05:00 455.49 0.00 -- 29.5 96.5
04/05/2022 04:00 455.49 0.00 -- 31.1 97.0
04/05/2022 03:00 455.48 0.00 -- 32.5 96.8
04/05/2022 02:00 455.50 0.00 -- 33.6 99.8
04/05/2022 01:00 455.50 0.00 -- 35.1 98.3
04/05/2022 00:00 455.49 0.00 0.00 38.8 98.3
04/04/2022 23:00 455.50 0.00 -- 43.1 97.3
04/04/2022 22:00 455.50 0.00 -- 44.8 97.0
04/04/2022 21:00 455.49 0.00 -- 46.3 97.3
04/04/2022 20:00 455.51 0.00 -- 48.8 98.5
04/04/2022 19:00 455.50 0.00 -- 52.8 98.0
04/04/2022 18:00 455.49 0.00 -- 53.3 97.3
04/04/2022 17:00 455.51 0.00 -- 52.6 98.3
04/04/2022 16:00 455.50 0.00 -- 52.7 99.0
04/04/2022 15:00 455.50 0.00 -- 50.5 98.5
04/04/2022 14:00 455.50 0.00 -- 48.6 97.5
04/04/2022 13:00 455.49 0.00 -- 46.5 97.3
04/04/2022 12:00 455.48 0.00 -- 45.0 97.3
04/04/2022 11:00 455.49 0.00 -- 43.7 97.8
04/04/2022 10:00 455.49 0.00 -- 41.4 97.8
04/04/2022 09:00 455.50 0.00 -- 39.0 98.3
04/04/2022 08:00 455.51 0.00 -- 37.4 99.5
04/04/2022 07:00 455.50 0.00 -- 36.5 99.5
04/04/2022 06:00 455.50 0.00 -- 36.3 99.8
04/04/2022 05:00 455.50 0.00 -- 36.0 100.0
04/04/2022 04:00 455.51 0.00 -- 37.2 99.5
04/04/2022 03:00 455.51 0.00 -- 38.5 101.0
04/04/2022 02:00 455.53 0.00 -- 39.5 102.8
04/04/2022 01:00 455.52 0.00 -- 40.4 102.8
04/04/2022 00:00 455.52 0.00 0.00 40.7 102.0
04/03/2022 23:00 455.54 0.00 -- 40.9 103.3
04/03/2022 22:00 455.53 0.00 -- 42.0 102.5
04/03/2022 21:00 455.51 0.00 -- 43.1 102.0
04/03/2022 20:00 455.51 0.00 -- 45.3 102.0
04/03/2022 19:00 455.53 0.00 -- 47.1 102.8
04/03/2022 18:00 455.53 0.00 -- 47.8 102.3
04/03/2022 17:00 455.53 0.00 -- 47.9 101.8
04/03/2022 16:00 455.54 0.00 -- 47.1 104.5
04/03/2022 15:00 455.53 0.00 -- 46.5 103.0
04/03/2022 14:00 455.53 0.00 -- 48.1 105.0
04/03/2022 13:00 455.53 0.00 -- 45.0 105.0
04/03/2022 12:00 455.52 0.00 -- 43.7 103.3
04/03/2022 11:00 455.54 0.00 -- 39.1 104.0
04/03/2022 10:00 455.53 0.00 -- 33.6 105.0
04/03/2022 09:00 455.54 0.00 -- 29.9 105.5
04/03/2022 08:00 455.55 0.00 -- 28.0 107.0
04/03/2022 07:00 455.56 0.00 -- 27.0 107.0
04/03/2022 06:00 455.57 0.00 -- 27.7 109.0
04/03/2022 05:00 455.57 0.00 -- 28.4 109.0
04/03/2022 04:00 455.57 0.00 -- 28.9 110.3
04/03/2022 03:00 455.57 0.00 -- 29.4 --
04/03/2022 02:00 455.59 0.00 -- 30.3 111.0
04/03/2022 01:00 455.57 0.00 -- 31.0 110.3
04/03/2022 00:00 455.57 0.00 0.00 32.0 111.0
04/02/2022 23:00 455.59 0.00 -- 35.1 113.0
04/02/2022 22:00 455.58 0.00 -- 38.0 112.3
04/02/2022 21:00 455.59 0.00 -- 40.3 111.5
04/02/2022 20:00 455.59 0.00 -- 42.5 113.5
04/02/2022 19:00 455.59 0.00 -- 43.9 112.8
04/02/2022 18:00 455.59 0.00 -- 47.3 113.8
04/02/2022 17:00 455.59 0.00 -- 47.4 113.3
04/02/2022 16:00 455.59 0.00 -- 47.2 113.3
04/02/2022 15:00 455.60 0.00 -- 47.4 114.0
04/02/2022 14:00 455.60 0.00 -- 45.0 112.5
04/02/2022 13:00 455.60 0.00 -- 43.4 112.8
04/02/2022 12:00 455.57 0.00 -- 42.5 111.8
04/02/2022 11:00 455.59 0.00 -- 38.3 114.0
04/02/2022 10:00 455.61 0.00 -- 36.2 114.3
04/02/2022 09:00 455.57 0.00 -- 34.7 113.3
04/02/2022 08:00 455.62 0.00 -- 32.5 113.8
04/02/2022 07:00 455.57 0.00 -- 33.0 113.5
04/02/2022 06:00 455.60 0.00 -- 33.9 114.5
04/02/2022 05:00 455.61 0.00 -- 33.7 115.8
04/02/2022 04:00 455.62 0.00 -- 34.2 114.8
04/02/2022 03:00 455.61 0.00 -- 34.9 115.8
04/02/2022 02:00 455.61 0.00 -- 35.8 116.3
04/02/2022 01:00 455.62 0.00 -- 36.6 116.0
04/02/2022 00:00 455.60 0.00 0.00 37.7 115.0
04/01/2022 23:00 455.61 0.00 -- 38.1 114.8
04/01/2022 22:00 455.60 0.01 -- 37.1 114.3
04/01/2022 21:00 455.60 0.00 -- 39.1 114.3
04/01/2022 20:00 455.59 0.00 -- 40.7 115.5
04/01/2022 19:00 455.61 0.00 -- 44.7 114.3
04/01/2022 18:00 455.61 0.00 -- 47.0 114.5
04/01/2022 17:00 455.58 0.00 -- 47.9 111.8
04/01/2022 16:00 455.57 0.00 -- 48.2 109.8
04/01/2022 15:00 455.58 0.00 -- 47.1 111.5
04/01/2022 14:00 455.58 0.00 -- 49.6 110.8
04/01/2022 13:00 455.56 0.00 -- 52.7 109.3
04/01/2022 12:00 455.57 0.00 -- 48.5 108.5
04/01/2022 11:00 455.54 0.02 -- 45.4 106.0
04/01/2022 10:00 455.56 0.04 -- 44.2 106.5
04/01/2022 09:00 455.54 0.00 -- 42.0 106.0
04/01/2022 08:00 455.54 0.02 -- 40.5 105.8
04/01/2022 07:00 455.54 0.01 -- 38.7 105.0
04/01/2022 06:00 455.53 0.00 -- 38.7 102.5
04/01/2022 05:00 455.54 0.00 -- 38.8 103.0
04/01/2022 04:00 455.53 0.00 -- 39.4 102.8
04/01/2022 03:00 455.52 0.00 -- 39.0 102.0
04/01/2022 02:00 455.51 0.00 -- 40.6 99.8
04/01/2022 01:00 455.53 0.01 -- 41.3 100.8
04/01/2022 00:00 455.50 0.09 0.11 41.3 98.5
03/31/2022 23:00 455.50 0.07 -- 41.4 97.8
03/31/2022 22:00 455.48 0.07 -- 41.9 97.0
03/31/2022 21:00 455.47 0.08 -- 42.0 96.5
03/31/2022 20:00 455.47 0.01 -- 42.2 95.5
03/31/2022 19:00 455.47 0.04 -- 42.6 95.3
03/31/2022 18:00 455.49 0.16 -- 43.3 94.8
03/31/2022 17:00 455.47 0.00 -- 45.0 93.8
03/31/2022 16:00 455.47 0.00 -- 45.5 93.5
03/31/2022 15:00 455.48 0.00 -- 45.9 94.5
03/31/2022 14:00 455.47 0.00 -- 45.7 94.3
03/31/2022 13:00 455.48 0.00 -- 45.3 94.3
03/31/2022 12:00 455.49 0.00 -- 43.2 95.3
03/31/2022 11:00 455.48 0.00 -- 41.1 95.5
03/31/2022 10:00 455.49 0.00 -- 39.7 94.8
03/31/2022 09:00 455.49 0.00 -- 37.0 96.0
03/31/2022 08:00 455.48 0.00 -- 34.8 96.0
03/31/2022 07:00 455.46 0.00 -- 34.6 96.0
03/31/2022 06:00 455.49 0.00 -- 34.6 97.5
03/31/2022 05:00 455.49 0.00 -- 34.3 97.0
03/31/2022 04:00 455.48 0.02 -- 34.9 97.0
03/31/2022 03:00 455.48 0.01 -- 35.4 96.8
03/31/2022 02:00 455.48 0.00 -- 37.4 97.5
03/31/2022 01:00 455.48 0.00 -- 37.6 97.5
03/31/2022 00:00 455.49 0.00 0.55 37.9 97.8
03/30/2022 23:00 455.50 0.00 -- 39.8 97.5
03/30/2022 22:00 455.51 0.00 -- 41.3 98.0
03/30/2022 21:00 455.48 0.00 -- 42.1 97.3
03/30/2022 20:00 455.48 0.00 -- 42.6 97.0
03/30/2022 19:00 455.49 0.00 -- 44.3 97.5
03/30/2022 18:00 455.48 0.00 -- 47.6 97.3
03/30/2022 17:00 455.51 0.00 -- 48.3 98.0
03/30/2022 16:00 455.47 0.00 -- 47.8 95.8
03/30/2022 15:00 455.49 0.00 -- 47.0 96.8
03/30/2022 14:00 455.50 0.00 -- 44.9 96.5
03/30/2022 13:00 455.49 0.00 -- 41.9 97.0
03/30/2022 12:00 455.48 0.00 -- 39.0 97.5
03/30/2022 11:00 455.52 0.00 -- 37.9 97.8
03/30/2022 10:00 455.49 0.00 -- 32.5 97.3
03/30/2022 09:00 455.47 0.00 -- 31.5 96.0
03/30/2022 08:00 455.48 0.00 -- 27.2 96.5
03/30/2022 07:00 455.51 0.00 -- 24.9 99.5
03/30/2022 06:00 455.51 0.00 -- 24.5 100.0
03/30/2022 05:00 455.51 0.00 -- 26.0 101.0
03/30/2022 04:00 455.54 0.00 -- 26.5 103.3
03/30/2022 03:00 455.52 0.00 -- 27.0 103.0
03/30/2022 02:00 455.52 0.00 -- 27.1 105.3
03/30/2022 01:00 455.54 0.00 -- 27.0 104.5
03/30/2022 00:00 455.55 0.00 0.00 27.0 103.3
03/29/2022 23:00 455.54 0.00 -- 26.5 104.3
03/29/2022 22:00 455.54 0.00 -- 26.6 104.5
03/29/2022 21:00 455.55 0.00 -- 26.4 106.0
03/29/2022 20:00 455.55 0.00 -- 26.8 106.0
03/29/2022 19:00 455.55 0.00 -- 27.9 105.8
03/29/2022 18:00 455.56 0.00 -- 31.4 107.5
03/29/2022 17:00 455.56 0.00 -- 32.5 106.3
03/29/2022 16:00 455.55 0.00 -- 32.3 108.3
03/29/2022 15:00 455.55 0.00 -- 30.4 106.3
03/29/2022 14:00 455.55 0.00 -- 29.2 107.5
03/29/2022 13:00 455.54 0.00 -- 26.7 105.8
03/29/2022 12:00 455.54 0.00 -- 24.0 105.8
03/29/2022 11:00 455.56 0.00 -- 23.2 105.8
03/29/2022 10:00 455.56 0.00 -- 22.2 106.5
03/29/2022 09:00 455.56 0.00 -- 21.3 108.8
03/29/2022 08:00 455.55 0.00 -- 20.3 108.0
03/29/2022 07:00 455.56 0.00 -- 19.5 110.8
03/29/2022 06:00 455.57 0.00 -- 19.1 111.5
03/29/2022 05:00 455.61 0.00 -- 18.4 113.5
03/29/2022 04:00 455.59 0.00 -- 18.6 113.3
03/29/2022 03:00 455.60 0.00 -- 18.7 115.0
03/29/2022 02:00 455.61 0.00 -- 17.5 117.5
03/29/2022 01:00 455.60 0.00 -- 18.0 116.0
03/29/2022 00:00 455.62 0.00 0.00 16.9 116.8
03/28/2022 23:00 455.61 0.00 -- 17.3 114.5
03/28/2022 22:00 455.62 0.00 -- 17.6 118.8
03/28/2022 21:00 455.62 0.00 -- 17.9 116.8
03/28/2022 20:00 455.66 0.00 -- 17.9 120.8
03/28/2022 19:00 455.63 0.00 -- 18.7 121.3
03/28/2022 18:00 455.66 0.00 -- 21.6 121.0
03/28/2022 17:00 455.63 0.00 -- 22.2 121.0
03/28/2022 16:00 455.65 0.00 -- 23.6 122.8
03/28/2022 15:00 455.64 0.00 -- 24.3 121.3
03/28/2022 14:00 455.66 0.00 -- 23.6 123.5
03/28/2022 13:00 455.67 0.00 -- 22.6 125.3
03/28/2022 12:00 455.64 0.00 -- 21.4 122.8
03/28/2022 11:00 455.69 0.00 -- 21.0 125.5
03/28/2022 10:00 455.66 0.00 -- 19.9 123.3
03/28/2022 09:00 455.68 0.00 -- 20.0 126.3
03/28/2022 08:00 455.68 0.00 -- 20.8 125.8
03/28/2022 07:00 455.66 0.00 -- 19.6 126.5
03/28/2022 06:00 455.69 0.00 -- 21.9 127.3
03/28/2022 05:00 455.66 0.00 -- 22.7 128.3
03/28/2022 04:00 455.69 0.00 -- 24.4 130.3
03/28/2022 03:00 455.72 0.00 -- 26.0 131.3
03/28/2022 02:00 455.70 0.00 -- 27.6 129.8
03/28/2022 01:00 455.71 0.00 -- 28.3 130.3
03/28/2022 00:00 455.70 0.00 0.00 29.9 132.3
03/27/2022 23:00 455.69 0.00 -- 31.8 129.3
03/27/2022 22:00 455.72 0.00 -- 33.5 135.3
03/27/2022 21:00 455.72 0.00 -- 35.5 134.8
03/27/2022 20:00 455.73 0.00 -- 36.9 135.8
03/27/2022 19:00 455.71 0.00 -- 39.3 135.3
03/27/2022 18:00 455.71 0.00 -- 42.4 134.3
03/27/2022 17:00 455.75 0.00 -- 43.2 135.0
03/27/2022 16:00 455.75 0.00 -- 44.2 135.5
03/27/2022 15:00 455.71 0.00 -- 43.6 135.3
03/27/2022 14:00 455.72 0.00 -- 45.6 135.5
03/27/2022 13:00 455.72 0.00 -- 45.9 135.0
03/27/2022 12:00 455.70 0.00 -- 47.4 136.0
03/27/2022 11:00 455.74 0.00 -- 45.0 137.5
03/27/2022 10:00 455.74 0.00 -- 43.8 138.3
03/27/2022 09:00 455.73 0.00 -- 42.2 138.3
03/27/2022 08:00 455.76 0.00 -- 32.2 138.5
03/27/2022 07:00 455.75 0.00 -- 28.3 143.5
03/27/2022 06:00 455.74 0.00 -- 28.9 137.5
03/27/2022 05:00 455.78 0.00 -- 29.5 141.5
03/27/2022 04:00 455.78 0.00 -- 29.8 143.5
03/27/2022 03:00 455.75 0.00 -- 30.7 143.8
03/27/2022 02:00 455.77 0.00 -- 33.7 142.8
03/27/2022 01:00 455.75 0.00 -- 34.6 141.8
03/27/2022 00:00 455.79 0.00 0.00 34.4 148.3
03/26/2022 23:00 455.79 0.00 -- 32.8 150.8
03/26/2022 22:00 455.81 0.00 -- 33.5 150.5
03/26/2022 21:00 455.81 0.00 -- 37.3 147.3
03/26/2022 20:00 455.82 0.00 -- 42.5 152.0
03/26/2022 19:00 455.78 0.00 -- 46.3 146.0
03/26/2022 18:00 455.82 0.00 -- 47.2 151.8
03/26/2022 17:00 455.78 0.00 -- 47.9 150.8
03/26/2022 16:00 455.81 0.00 -- 48.7 148.0
03/26/2022 15:00 455.82 0.00 -- 48.7 150.3
03/26/2022 14:00 455.81 0.00 -- 47.3 149.5
03/26/2022 13:00 455.77 0.00 -- 47.1 147.0
03/26/2022 12:00 455.85 0.00 -- 47.7 155.5
03/26/2022 11:00 455.79 0.00 -- 46.7 149.3
03/26/2022 10:00 455.79 0.00 -- 45.7 149.5
03/26/2022 09:00 455.82 0.00 -- 44.1 153.5
03/26/2022 08:00 455.83 0.00 -- 37.9 153.8
03/26/2022 07:00 455.81 0.00 -- 35.5 152.5
03/26/2022 06:00 455.81 0.00 -- 39.4 155.0
03/26/2022 05:00 455.88 0.00 -- 34.3 160.0
03/26/2022 04:00 455.85 0.00 -- 39.0 157.8
03/26/2022 03:00 455.85 0.00 -- 43.5 152.3
03/26/2022 02:00 455.84 0.00 -- 44.3 153.8
03/26/2022 01:00 455.85 0.00 -- 44.0 155.0
03/26/2022 00:00 455.83 0.00 0.00 40.9 157.0
03/25/2022 23:00 455.83 0.00 -- 43.5 156.5
03/25/2022 22:00 455.84 0.00 -- 48.6 153.5
03/25/2022 21:00 455.83 0.00 -- 45.1 153.5
03/25/2022 20:00 455.83 0.00 -- 50.4 154.5
03/25/2022 19:00 455.85 0.00 -- 50.6 158.0
03/25/2022 18:00 455.80 0.00 -- 52.6 150.3
03/25/2022 17:00 455.79 0.00 -- 53.4 148.8
03/25/2022 16:00 455.84 0.00 -- 53.0 152.3
03/25/2022 15:00 455.77 0.00 -- 52.3 143.5
03/25/2022 14:00 455.74 0.00 -- 52.0 139.0
03/25/2022 13:00 455.76 0.00 -- 50.2 141.5
03/25/2022 12:00 455.79 0.00 -- 47.4 140.8
03/25/2022 11:00 455.73 0.00 -- 40.8 136.3
03/25/2022 10:00 455.73 0.00 -- 38.5 136.0
03/25/2022 09:00 455.73 0.00 -- 36.7 134.5
03/25/2022 08:00 455.72 0.01 -- 35.4 133.3
03/25/2022 07:00 455.69 0.00 -- 34.4 133.3
03/25/2022 06:00 455.71 0.09 -- 34.8 133.0
03/25/2022 05:00 455.72 0.18 -- 34.9 131.3
03/25/2022 04:00 455.66 0.10 -- 34.9 128.3
03/25/2022 03:00 455.69 0.05 -- 35.0 126.8
03/25/2022 02:00 455.64 0.05 -- 35.1 125.3
03/25/2022 01:00 455.67 0.00 -- 35.3 125.5
03/25/2022 00:00 455.68 0.00 0.48 35.6 124.3
03/24/2022 23:00 455.66 0.00 -- 35.7 125.0
03/24/2022 22:00 455.65 0.01 -- 36.4 123.3
03/24/2022 21:00 455.68 0.01 -- 36.9 128.8
03/24/2022 20:00 455.65 0.02 -- 37.1 122.5
03/24/2022 19:00 455.67 0.04 -- 37.8 123.5
03/24/2022 18:00 455.65 0.03 -- 37.9 122.8
03/24/2022 17:00 455.66 0.05 -- 37.5 124.3
03/24/2022 16:00 455.65 0.05 -- 37.6 124.3
03/24/2022 15:00 455.65 0.08 -- 36.9 123.5
03/24/2022 14:00 455.63 0.10 -- 36.0 121.0
03/24/2022 13:00 455.63 0.03 -- 35.1 122.8
03/24/2022 12:00 455.64 0.02 -- 34.5 124.3
03/24/2022 11:00 455.67 0.00 -- 34.0 124.8
03/24/2022 10:00 455.64 0.01 -- 33.3 124.0
03/24/2022 09:00 455.64 0.00 -- 33.1 121.0
03/24/2022 08:00 455.65 0.01 -- 33.3 123.0
03/24/2022 07:00 455.67 0.00 -- 33.1 123.0
03/24/2022 06:00 455.67 0.00 -- 33.2 125.3
03/24/2022 05:00 455.67 0.00 -- 34.7 125.8
03/24/2022 04:00 455.66 0.00 -- 34.6 123.0
03/24/2022 03:00 455.63 0.00 -- 34.9 122.5
03/24/2022 02:00 455.66 0.00 -- 34.4 127.0
03/24/2022 01:00 455.66 0.00 -- 34.6 126.5
03/24/2022 00:00 455.69 0.00 0.46 34.1 127.0
03/23/2022 23:00 455.68 0.00 -- 33.2 127.0
03/23/2022 22:00 455.70 0.00 -- 32.2 128.8
03/23/2022 21:00 455.71 0.00 -- 35.0 128.8
03/23/2022 20:00 455.68 0.00 -- 37.9 128.5
03/23/2022 19:00 455.71 0.00 -- 44.4 129.8
03/23/2022 18:00 455.68 0.00 -- 52.0 129.5
03/23/2022 17:00 455.81 0.00 -- 49.8 137.3
03/23/2022 16:00 455.72 0.00 -- 52.0 133.3
03/23/2022 15:00 455.71 0.00 -- 50.7 130.3
03/23/2022 14:00 455.73 0.00 -- 51.7 132.3
03/23/2022 13:00 455.73 0.00 -- 47.7 134.5
03/23/2022 12:00 455.73 0.00 -- 47.9 133.8
03/23/2022 11:00 455.70 0.00 -- 40.4 134.0
03/23/2022 10:00 455.70 0.00 -- 38.0 131.3
03/23/2022 09:00 455.72 0.00 -- 32.4 132.3
03/23/2022 08:00 455.69 0.00 -- 29.1 132.0
03/23/2022 07:00 455.73 0.00 -- 26.7 136.0
03/23/2022 06:00 455.76 0.00 -- 24.0 138.8
03/23/2022 05:00 455.71 0.00 -- 24.8 135.3
03/23/2022 04:00 455.72 0.00 -- 26.3 138.5
03/23/2022 03:00 455.73 0.00 -- 28.5 141.3
03/23/2022 02:00 455.76 0.00 -- 26.7 138.3
03/23/2022 01:00 455.76 0.00 -- 27.2 140.8
03/23/2022 00:00 455.74 0.00 0.00 28.6 139.5
03/22/2022 23:00 455.74 0.00 -- 32.3 141.0
03/22/2022 22:00 455.79 0.00 -- 34.0 144.5
03/22/2022 21:00 455.82 0.00 -- 34.1 149.8
03/22/2022 20:00 455.80 0.00 -- 33.9 146.5
03/22/2022 19:00 455.78 0.00 -- 34.3 148.8
03/22/2022 18:00 455.79 0.00 -- 34.8 148.3
03/22/2022 17:00 455.81 0.00 -- 37.1 152.3
03/22/2022 16:00 455.78 0.00 -- 37.1 148.5
03/22/2022 15:00 455.80 0.00 -- 39.6 148.8
03/22/2022 14:00 455.78 0.00 -- 37.9 149.5
03/22/2022 13:00 455.81 0.00 -- 37.4 146.0
03/22/2022 12:00 455.77 0.00 -- 35.1 151.8
03/22/2022 11:00 455.78 0.00 -- 36.2 146.0
03/22/2022 10:00 455.81 0.00 -- 35.2 150.8
03/22/2022 09:00 455.82 0.00 -- 33.8 152.0
03/22/2022 08:00 455.79 0.00 -- 33.2 153.3
03/22/2022 07:00 455.82 0.00 -- 31.8 151.3
03/22/2022 06:00 455.79 0.00 -- 32.2 151.5
03/22/2022 05:00 455.82 0.00 -- 32.7 152.8
03/22/2022 04:00 455.81 0.00 -- 33.0 154.3
03/22/2022 03:00 455.86 0.00 -- 33.7 155.0
03/22/2022 02:00 455.83 0.00 -- 34.2 158.0
03/22/2022 01:00 455.81 0.00 -- 34.6 155.0
03/22/2022 00:00 455.82 0.00 0.00 35.5 156.8
03/21/2022 23:00 455.85 0.00 -- 36.9 158.5
03/21/2022 22:00 455.82 0.00 -- 39.0 161.3
03/21/2022 21:00 455.85 0.00 -- 40.4 159.0
03/21/2022 20:00 455.91 0.00 -- 41.6 159.3
03/21/2022 19:00 455.82 0.00 -- 42.7 158.3
03/21/2022 18:00 455.88 0.00 -- 44.1 160.3
03/21/2022 17:00 455.84 0.00 -- 45.7 157.3
03/21/2022 16:00 455.83 0.00 -- 47.6 157.5
03/21/2022 15:00 455.86 0.00 -- 49.1 158.3
03/21/2022 14:00 455.85 0.00 -- 46.9 158.5
03/21/2022 13:00 455.80 0.00 -- 48.6 156.0
03/21/2022 12:00 455.87 0.00 -- 47.0 160.5
03/21/2022 11:00 455.88 0.00 -- 44.6 158.0
03/21/2022 10:00 455.87 0.00 -- 42.8 157.5
03/21/2022 09:00 455.83 0.00 -- 42.3 156.0
03/21/2022 08:00 455.81 0.00 -- 40.4 155.3
03/21/2022 07:00 455.86 0.00 -- 40.4 158.5
03/21/2022 06:00 455.85 0.00 -- 40.3 159.3
03/21/2022 05:00 455.89 0.00 -- 40.1 165.0
03/21/2022 04:00 455.86 0.00 -- 40.0 162.0
03/21/2022 03:00 455.83 0.00 -- 40.7 156.3
03/21/2022 02:00 455.88 0.00 -- 41.2 162.8
03/21/2022 01:00 455.83 0.00 -- 41.9 158.0
03/21/2022 00:00 455.83 0.00 0.00 43.0 156.8
03/20/2022 23:00 455.83 0.00 -- 43.4 156.5
03/20/2022 22:00 455.83 0.00 -- 44.4 157.8
03/20/2022 21:00 455.84 0.00 -- 45.5 158.3
03/20/2022 20:00 455.83 0.00 -- 46.3 164.0
03/20/2022 19:00 455.88 0.00 -- 48.3 160.8
03/20/2022 18:00 455.90 0.00 -- 48.8 160.0
03/20/2022 17:00 455.85 0.00 -- 50.6 159.3
03/20/2022 16:00 455.84 0.00 -- 52.7 159.3
03/20/2022 15:00 455.89 0.00 -- 54.1 164.5
03/20/2022 14:00 455.87 0.00 -- 54.6 163.0
03/20/2022 13:00 455.89 0.00 -- 50.1 166.3
03/20/2022 12:00 455.84 0.00 -- 46.3 163.5
03/20/2022 11:00 455.85 0.00 -- 45.5 158.5
03/20/2022 10:00 455.89 0.00 -- 40.1 163.0
03/20/2022 09:00 455.86 0.00 -- 38.4 158.8
03/20/2022 08:00 455.87 0.00 -- 36.7 164.3
03/20/2022 07:00 455.84 0.00 -- 35.2 156.8
03/20/2022 06:00 455.83 0.00 -- 36.7 154.0
03/20/2022 05:00 455.84 0.00 -- 36.0 156.5
03/20/2022 04:00 455.80 0.00 -- 36.6 153.5
03/20/2022 03:00 455.79 0.00 -- 37.5 153.5
03/20/2022 02:00 455.81 0.01 -- 38.9 150.0
03/20/2022 01:00 455.78 0.09 -- 39.3 153.3
03/20/2022 00:00 455.82 0.03 0.10 39.8 147.3
03/19/2022 23:00 455.78 0.00 -- 39.9 145.3
03/19/2022 22:00 455.76 0.01 -- 40.7 144.5
03/19/2022 21:00 455.82 0.00 -- 40.9 146.3
03/19/2022 20:00 455.76 0.00 -- 41.1 140.3
03/19/2022 19:00 455.76 0.00 -- 41.1 137.8
03/19/2022 18:00 455.76 0.03 -- 41.1 137.8
03/19/2022 17:00 455.74 0.26 -- 41.1 135.3
03/19/2022 16:00 455.72 0.02 -- 41.1 132.5
03/19/2022 15:00 455.68 0.01 -- 41.2 131.5
03/19/2022 14:00 455.71 0.06 -- 41.0 129.3
03/19/2022 13:00 455.70 0.04 -- 40.6 130.8
03/19/2022 12:00 455.73 0.01 -- 41.2 129.8
03/19/2022 11:00 455.65 0.01 -- 41.8 126.5
03/19/2022 10:00 455.73 0.02 -- 42.3 129.8
03/19/2022 09:00 455.66 0.00 -- 44.0 128.5
03/19/2022 08:00 455.66 0.00 -- 45.5 126.8
03/19/2022 07:00 455.65 0.00 -- 46.0 126.5
03/19/2022 06:00 455.65 0.00 -- 47.4 123.5
03/19/2022 05:00 455.70 0.00 -- 48.4 125.5
03/19/2022 04:00 455.65 0.00 -- 48.8 123.5
03/19/2022 03:00 455.65 0.00 -- 48.3 124.5
03/19/2022 02:00 455.64 0.00 -- 50.0 121.5
03/19/2022 01:00 455.64 0.00 -- 51.6 121.5
03/19/2022 00:00 455.65 0.00 0.50 51.8 121.3
03/18/2022 23:00 455.62 0.00 -- 44.9 118.5
03/18/2022 22:00 455.61 0.00 -- 46.5 117.8
03/18/2022 21:00 455.61 0.00 -- 46.9 117.5
03/18/2022 20:00 455.60 0.00 -- 49.6 114.5
03/18/2022 19:00 455.61 0.00 -- 56.2 113.8
03/18/2022 18:00 455.58 0.00 -- 62.8 112.3
03/18/2022 17:00 455.58 0.00 -- 68.9 113.5
03/18/2022 16:00 455.58 0.00 -- 68.3 112.8
03/18/2022 15:00 455.59 0.00 -- 68.0 112.8
03/18/2022 14:00 455.58 0.00 -- 68.1 111.3
03/18/2022 13:00 455.57 0.00 -- 65.8 110.5
03/18/2022 12:00 455.57 0.00 -- 65.6 110.3
03/18/2022 11:00 455.56 0.00 -- 59.1 108.0
03/18/2022 10:00 455.56 0.00 -- 47.3 109.3
03/18/2022 09:00 455.56 0.00 -- 38.9 108.5
03/18/2022 08:00 455.56 0.00 -- 32.9 107.8
03/18/2022 07:00 455.56 0.00 -- 31.1 108.8
03/18/2022 06:00 455.57 0.00 -- 30.3 107.0
03/18/2022 05:00 455.58 0.00 -- 30.6 109.8
03/18/2022 04:00 455.54 0.00 -- 31.2 108.0
03/18/2022 03:00 455.57 0.00 -- 31.7 108.0
03/18/2022 02:00 455.55 0.00 -- 32.1 105.5
03/18/2022 01:00 455.54 0.00 -- 34.6 104.3
03/18/2022 00:00 455.55 0.00 0.00 36.3 105.0
03/17/2022 23:00 455.54 0.00 -- 37.6 103.3
03/17/2022 22:00 455.53 0.00 -- 40.8 102.3
03/17/2022 21:00 455.50 0.00 -- 45.9 101.8
03/17/2022 20:00 -- -- -- 45.9 102.3
03/17/2022 19:00 -- -- -- 50.1 98.8
03/17/2022 18:00 -- -- -- 57.1 99.5
03/17/2022 17:00 -- -- -- 57.4 100.0
03/17/2022 16:00 -- -- -- 57.7 97.5
03/17/2022 15:00 -- -- -- 57.0 96.8
03/17/2022 14:00 -- -- -- 55.9 96.5
03/17/2022 13:00 -- -- -- 58.0 96.5
03/17/2022 12:00 -- -- -- 57.5 96.3
03/17/2022 11:00 -- -- -- 54.3 94.5
03/17/2022 10:00 -- -- -- 43.2 95.3
03/17/2022 09:00 -- -- -- 34.9 95.5
03/17/2022 08:00 -- -- -- 33.0 95.0
03/17/2022 07:00 -- -- -- 32.3 96.3
03/17/2022 06:00 -- -- -- 32.1 94.0
03/17/2022 05:00 -- -- -- 31.8 94.3
03/17/2022 04:00 -- -- -- 31.5 93.0
03/17/2022 03:00 -- -- -- 30.6 93.8
03/17/2022 02:00 -- -- -- 30.8 93.8
03/17/2022 01:00 -- -- -- 30.2 92.8
03/17/2022 00:00 -- -- 0.00 30.3 92.5